<?xml version="1.0" encoding="UTF-8" standalone="no" ?>
<gpx xmlns="http://www.topografix.com/GPX/1/1" xmlns:xsi="http://www.w3.org/2001/XMLSchema-instance" xsi:schemaLocation="http://www.topografix.com/GPX/1/1 http://www.topografix.com/GPX/1/1/gpx.xsd" version="1.1" creator="VisuGPX - https://www.visugpx.com">
  <metadata>
    <name>Arrentès de Corcieux</name>
    <desc><![CDATA[Carte 3618 OT Le Honeck - Gérardmer
3h]]></desc>
  </metadata>
  <trk>
    <name><![CDATA[Arrentès de Corcieux]]></name>
    <desc><![CDATA[Carte 3618 OT Le Honeck - Gérardmer
3h]]></desc>
    <trkseg>
      <trkpt lat="48.12777" lon="6.90801">
        <ele>717.97</ele>
        <time>2014-02-16T14:16:33Z</time>
      </trkpt>
      <trkpt lat="48.12778" lon="6.90801">
        <ele>717.97</ele>
        <time>2014-02-16T14:16:34Z</time>
      </trkpt>
      <trkpt lat="48.12789" lon="6.90796">
        <ele>718.03</ele>
        <time>2014-02-16T14:16:45Z</time>
      </trkpt>
      <trkpt lat="48.12797" lon="6.9079">
        <ele>717.4</ele>
        <time>2014-02-16T14:16:53Z</time>
      </trkpt>
      <trkpt lat="48.12821" lon="6.90782">
        <ele>717.8</ele>
        <time>2014-02-16T14:17:12Z</time>
      </trkpt>
      <trkpt lat="48.12847" lon="6.90772">
        <ele>717.97</ele>
        <time>2014-02-16T14:17:28Z</time>
      </trkpt>
      <trkpt lat="48.12866" lon="6.90762">
        <ele>718.23</ele>
        <time>2014-02-16T14:17:44Z</time>
      </trkpt>
      <trkpt lat="48.12884" lon="6.90743">
        <ele>718.11</ele>
        <time>2014-02-16T14:18:01Z</time>
      </trkpt>
      <trkpt lat="48.12887" lon="6.90733">
        <ele>717.67</ele>
        <time>2014-02-16T14:18:07Z</time>
      </trkpt>
      <trkpt lat="48.12893" lon="6.90717">
        <ele>716.53</ele>
        <time>2014-02-16T14:18:16Z</time>
      </trkpt>
      <trkpt lat="48.12901" lon="6.90695">
        <ele>715.43</ele>
        <time>2014-02-16T14:18:28Z</time>
      </trkpt>
      <trkpt lat="48.12911" lon="6.9066">
        <ele>713.73</ele>
        <time>2014-02-16T14:18:45Z</time>
      </trkpt>
      <trkpt lat="48.12921" lon="6.90628">
        <ele>712.14</ele>
        <time>2014-02-16T14:19:00Z</time>
      </trkpt>
      <trkpt lat="48.12921" lon="6.90624">
        <ele>711.78</ele>
        <time>2014-02-16T14:19:02Z</time>
      </trkpt>
      <trkpt lat="48.1292" lon="6.90622">
        <ele>711.62</ele>
        <time>2014-02-16T14:19:03Z</time>
      </trkpt>
      <trkpt lat="48.12921" lon="6.90604">
        <ele>710.24</ele>
        <time>2014-02-16T14:19:12Z</time>
      </trkpt>
      <trkpt lat="48.12922" lon="6.90602">
        <ele>710.08</ele>
        <time>2014-02-16T14:19:13Z</time>
      </trkpt>
      <trkpt lat="48.12922" lon="6.906">
        <ele>709.93</ele>
        <time>2014-02-16T14:19:14Z</time>
      </trkpt>
      <trkpt lat="48.12922" lon="6.90597">
        <ele>709.65</ele>
        <time>2014-02-16T14:19:16Z</time>
      </trkpt>
      <trkpt lat="48.12922" lon="6.90595">
        <ele>709.5</ele>
        <time>2014-02-16T14:19:17Z</time>
      </trkpt>
      <trkpt lat="48.12922" lon="6.90593">
        <ele>709.34</ele>
        <time>2014-02-16T14:19:18Z</time>
      </trkpt>
      <trkpt lat="48.12922" lon="6.90591">
        <ele>709.19</ele>
        <time>2014-02-16T14:19:19Z</time>
      </trkpt>
      <trkpt lat="48.12921" lon="6.90589">
        <ele>709.03</ele>
        <time>2014-02-16T14:19:20Z</time>
      </trkpt>
      <trkpt lat="48.12921" lon="6.90587">
        <ele>708.87</ele>
        <time>2014-02-16T14:19:21Z</time>
      </trkpt>
      <trkpt lat="48.12922" lon="6.90585">
        <ele>708.69</ele>
        <time>2014-02-16T14:19:22Z</time>
      </trkpt>
      <trkpt lat="48.12922" lon="6.90583">
        <ele>708.49</ele>
        <time>2014-02-16T14:19:23Z</time>
      </trkpt>
      <trkpt lat="48.12923" lon="6.90579">
        <ele>708.06</ele>
        <time>2014-02-16T14:19:25Z</time>
      </trkpt>
      <trkpt lat="48.12923" lon="6.90576">
        <ele>707.87</ele>
        <time>2014-02-16T14:19:26Z</time>
      </trkpt>
      <trkpt lat="48.12923" lon="6.90574">
        <ele>707.68</ele>
        <time>2014-02-16T14:19:27Z</time>
      </trkpt>
      <trkpt lat="48.12924" lon="6.90563">
        <ele>706.57</ele>
        <time>2014-02-16T14:19:33Z</time>
      </trkpt>
      <trkpt lat="48.12923" lon="6.90561">
        <ele>706.42</ele>
        <time>2014-02-16T14:19:34Z</time>
      </trkpt>
      <trkpt lat="48.12923" lon="6.90559">
        <ele>706.28</ele>
        <time>2014-02-16T14:19:35Z</time>
      </trkpt>
      <trkpt lat="48.12923" lon="6.90556">
        <ele>706.17</ele>
        <time>2014-02-16T14:19:36Z</time>
      </trkpt>
      <trkpt lat="48.12923" lon="6.90555">
        <ele>706.08</ele>
        <time>2014-02-16T14:19:37Z</time>
      </trkpt>
      <trkpt lat="48.12923" lon="6.90553">
        <ele>706</ele>
        <time>2014-02-16T14:19:38Z</time>
      </trkpt>
      <trkpt lat="48.12923" lon="6.90551">
        <ele>705.93</ele>
        <time>2014-02-16T14:19:39Z</time>
      </trkpt>
      <trkpt lat="48.12923" lon="6.90549">
        <ele>705.83</ele>
        <time>2014-02-16T14:19:40Z</time>
      </trkpt>
      <trkpt lat="48.12924" lon="6.9054">
        <ele>705.23</ele>
        <time>2014-02-16T14:19:45Z</time>
      </trkpt>
      <trkpt lat="48.12924" lon="6.90538">
        <ele>705.08</ele>
        <time>2014-02-16T14:19:46Z</time>
      </trkpt>
      <trkpt lat="48.12927" lon="6.90504">
        <ele>702.47</ele>
        <time>2014-02-16T14:20:00Z</time>
      </trkpt>
      <trkpt lat="48.12927" lon="6.90502">
        <ele>702.31</ele>
        <time>2014-02-16T14:20:01Z</time>
      </trkpt>
      <trkpt lat="48.12928" lon="6.90499">
        <ele>702.15</ele>
        <time>2014-02-16T14:20:02Z</time>
      </trkpt>
      <trkpt lat="48.12933" lon="6.90474">
        <ele>701.06</ele>
        <time>2014-02-16T14:20:11Z</time>
      </trkpt>
      <trkpt lat="48.12934" lon="6.90472">
        <ele>700.93</ele>
        <time>2014-02-16T14:20:12Z</time>
      </trkpt>
      <trkpt lat="48.12934" lon="6.9047">
        <ele>700.81</ele>
        <time>2014-02-16T14:20:13Z</time>
      </trkpt>
      <trkpt lat="48.12934" lon="6.90468">
        <ele>700.7</ele>
        <time>2014-02-16T14:20:14Z</time>
      </trkpt>
      <trkpt lat="48.12934" lon="6.90466">
        <ele>700.58</ele>
        <time>2014-02-16T14:20:15Z</time>
      </trkpt>
      <trkpt lat="48.12934" lon="6.90464">
        <ele>700.45</ele>
        <time>2014-02-16T14:20:16Z</time>
      </trkpt>
      <trkpt lat="48.12934" lon="6.90462">
        <ele>700.3</ele>
        <time>2014-02-16T14:20:17Z</time>
      </trkpt>
      <trkpt lat="48.12935" lon="6.9046">
        <ele>700.14</ele>
        <time>2014-02-16T14:20:18Z</time>
      </trkpt>
      <trkpt lat="48.12936" lon="6.90458">
        <ele>699.98</ele>
        <time>2014-02-16T14:20:19Z</time>
      </trkpt>
      <trkpt lat="48.12936" lon="6.90456">
        <ele>699.83</ele>
        <time>2014-02-16T14:20:20Z</time>
      </trkpt>
      <trkpt lat="48.12937" lon="6.90454">
        <ele>699.58</ele>
        <time>2014-02-16T14:20:21Z</time>
      </trkpt>
      <trkpt lat="48.12938" lon="6.90452">
        <ele>699.48</ele>
        <time>2014-02-16T14:20:22Z</time>
      </trkpt>
      <trkpt lat="48.12939" lon="6.9045">
        <ele>699.41</ele>
        <time>2014-02-16T14:20:23Z</time>
      </trkpt>
      <trkpt lat="48.12939" lon="6.90448">
        <ele>699.35</ele>
        <time>2014-02-16T14:20:24Z</time>
      </trkpt>
      <trkpt lat="48.1294" lon="6.90445">
        <ele>699.29</ele>
        <time>2014-02-16T14:20:25Z</time>
      </trkpt>
      <trkpt lat="48.12941" lon="6.90443">
        <ele>699.26</ele>
        <time>2014-02-16T14:20:26Z</time>
      </trkpt>
      <trkpt lat="48.1294" lon="6.90433">
        <ele>698.44</ele>
        <time>2014-02-16T14:20:33Z</time>
      </trkpt>
      <trkpt lat="48.12939" lon="6.90432">
        <ele>698.29</ele>
        <time>2014-02-16T14:20:34Z</time>
      </trkpt>
      <trkpt lat="48.12922" lon="6.90432">
        <ele>695.59</ele>
        <time>2014-02-16T14:20:47Z</time>
      </trkpt>
      <trkpt lat="48.12904" lon="6.90445">
        <ele>694.43</ele>
        <time>2014-02-16T14:21:03Z</time>
      </trkpt>
      <trkpt lat="48.12884" lon="6.90455">
        <ele>693.41</ele>
        <time>2014-02-16T14:21:20Z</time>
      </trkpt>
      <trkpt lat="48.1288" lon="6.90457">
        <ele>693.3</ele>
        <time>2014-02-16T14:21:23Z</time>
      </trkpt>
      <trkpt lat="48.12879" lon="6.90457">
        <ele>693.26</ele>
        <time>2014-02-16T14:21:24Z</time>
      </trkpt>
      <trkpt lat="48.12878" lon="6.90458">
        <ele>693.22</ele>
        <time>2014-02-16T14:21:25Z</time>
      </trkpt>
      <trkpt lat="48.12867" lon="6.90459">
        <ele>693.46</ele>
        <time>2014-02-16T14:21:40Z</time>
      </trkpt>
      <trkpt lat="48.12859" lon="6.90458">
        <ele>693.75</ele>
        <time>2014-02-16T14:22:02Z</time>
      </trkpt>
      <trkpt lat="48.12842" lon="6.90453">
        <ele>693.81</ele>
        <time>2014-02-16T14:22:17Z</time>
      </trkpt>
      <trkpt lat="48.12821" lon="6.90441">
        <ele>693.86</ele>
        <time>2014-02-16T14:22:38Z</time>
      </trkpt>
      <trkpt lat="48.12803" lon="6.90418">
        <ele>694.94</ele>
        <time>2014-02-16T14:22:56Z</time>
      </trkpt>
      <trkpt lat="48.12787" lon="6.904">
        <ele>696.55</ele>
        <time>2014-02-16T14:23:15Z</time>
      </trkpt>
      <trkpt lat="48.12771" lon="6.90378">
        <ele>697.65</ele>
        <time>2014-02-16T14:23:36Z</time>
      </trkpt>
      <trkpt lat="48.12763" lon="6.90365">
        <ele>697.7</ele>
        <time>2014-02-16T14:23:59Z</time>
      </trkpt>
      <trkpt lat="48.12748" lon="6.90351">
        <ele>699.61</ele>
        <time>2014-02-16T14:24:20Z</time>
      </trkpt>
      <trkpt lat="48.12726" lon="6.9034">
        <ele>702.78</ele>
        <time>2014-02-16T14:24:41Z</time>
      </trkpt>
      <trkpt lat="48.12711" lon="6.9033">
        <ele>706</ele>
        <time>2014-02-16T14:25:01Z</time>
      </trkpt>
      <trkpt lat="48.12699" lon="6.90321">
        <ele>709.16</ele>
        <time>2014-02-16T14:25:22Z</time>
      </trkpt>
      <trkpt lat="48.12687" lon="6.90309">
        <ele>711.82</ele>
        <time>2014-02-16T14:25:40Z</time>
      </trkpt>
      <trkpt lat="48.12678" lon="6.903">
        <ele>714.84</ele>
        <time>2014-02-16T14:25:58Z</time>
      </trkpt>
      <trkpt lat="48.12669" lon="6.90287">
        <ele>716.03</ele>
        <time>2014-02-16T14:26:06Z</time>
      </trkpt>
      <trkpt lat="48.12656" lon="6.9027">
        <ele>719.37</ele>
        <time>2014-02-16T14:26:25Z</time>
      </trkpt>
      <trkpt lat="48.1265" lon="6.90262">
        <ele>722.47</ele>
        <time>2014-02-16T14:26:38Z</time>
      </trkpt>
      <trkpt lat="48.1265" lon="6.90262">
        <ele>722.67</ele>
        <time>2014-02-16T14:26:39Z</time>
      </trkpt>
      <trkpt lat="48.1264" lon="6.90253">
        <ele>724.42</ele>
        <time>2014-02-16T14:26:52Z</time>
      </trkpt>
      <trkpt lat="48.12627" lon="6.90239">
        <ele>727.69</ele>
        <time>2014-02-16T14:27:10Z</time>
      </trkpt>
      <trkpt lat="48.12618" lon="6.90219">
        <ele>730.34</ele>
        <time>2014-02-16T14:27:28Z</time>
      </trkpt>
      <trkpt lat="48.12614" lon="6.90213">
        <ele>730.88</ele>
        <time>2014-02-16T14:27:33Z</time>
      </trkpt>
      <trkpt lat="48.12612" lon="6.90209">
        <ele>731.15</ele>
        <time>2014-02-16T14:27:36Z</time>
      </trkpt>
      <trkpt lat="48.12606" lon="6.90203">
        <ele>732.73</ele>
        <time>2014-02-16T14:27:46Z</time>
      </trkpt>
      <trkpt lat="48.12593" lon="6.90184">
        <ele>736.01</ele>
        <time>2014-02-16T14:28:09Z</time>
      </trkpt>
      <trkpt lat="48.12594" lon="6.90183">
        <ele>736.32</ele>
        <time>2014-02-16T14:28:11Z</time>
      </trkpt>
      <trkpt lat="48.12585" lon="6.90158">
        <ele>739.55</ele>
        <time>2014-02-16T14:28:34Z</time>
      </trkpt>
      <trkpt lat="48.1258" lon="6.90147">
        <ele>741.11</ele>
        <time>2014-02-16T14:28:53Z</time>
      </trkpt>
      <trkpt lat="48.12578" lon="6.90144">
        <ele>741.42</ele>
        <time>2014-02-16T14:29:03Z</time>
      </trkpt>
      <trkpt lat="48.12562" lon="6.90139">
        <ele>741.84</ele>
        <time>2014-02-16T14:29:22Z</time>
      </trkpt>
      <trkpt lat="48.1256" lon="6.90142">
        <ele>742.5</ele>
        <time>2014-02-16T14:29:33Z</time>
      </trkpt>
      <trkpt lat="48.12565" lon="6.9014">
        <ele>743.32</ele>
        <time>2014-02-16T14:30:21Z</time>
      </trkpt>
      <trkpt lat="48.12557" lon="6.90125">
        <ele>745.13</ele>
        <time>2014-02-16T14:30:35Z</time>
      </trkpt>
      <trkpt lat="48.12546" lon="6.90108">
        <ele>748.36</ele>
        <time>2014-02-16T14:30:51Z</time>
      </trkpt>
      <trkpt lat="48.12536" lon="6.90093">
        <ele>751.43</ele>
        <time>2014-02-16T14:31:06Z</time>
      </trkpt>
      <trkpt lat="48.12521" lon="6.90074">
        <ele>754.54</ele>
        <time>2014-02-16T14:31:23Z</time>
      </trkpt>
      <trkpt lat="48.12498" lon="6.90052">
        <ele>757.56</ele>
        <time>2014-02-16T14:31:43Z</time>
      </trkpt>
      <trkpt lat="48.12485" lon="6.9003">
        <ele>760.65</ele>
        <time>2014-02-16T14:32:02Z</time>
      </trkpt>
      <trkpt lat="48.12469" lon="6.90003">
        <ele>763.71</ele>
        <time>2014-02-16T14:32:20Z</time>
      </trkpt>
      <trkpt lat="48.12458" lon="6.89984">
        <ele>766.78</ele>
        <time>2014-02-16T14:32:38Z</time>
      </trkpt>
      <trkpt lat="48.12442" lon="6.89963">
        <ele>769.14</ele>
        <time>2014-02-16T14:32:59Z</time>
      </trkpt>
      <trkpt lat="48.12427" lon="6.8994">
        <ele>770.56</ele>
        <time>2014-02-16T14:33:21Z</time>
      </trkpt>
      <trkpt lat="48.12412" lon="6.89925">
        <ele>772.14</ele>
        <time>2014-02-16T14:33:42Z</time>
      </trkpt>
      <trkpt lat="48.12407" lon="6.89923">
        <ele>772.37</ele>
        <time>2014-02-16T14:33:45Z</time>
      </trkpt>
      <trkpt lat="48.12403" lon="6.89915">
        <ele>772.78</ele>
        <time>2014-02-16T14:34:13Z</time>
      </trkpt>
      <trkpt lat="48.12404" lon="6.89908">
        <ele>773.75</ele>
        <time>2014-02-16T14:34:42Z</time>
      </trkpt>
      <trkpt lat="48.12404" lon="6.89905">
        <ele>773.29</ele>
        <time>2014-02-16T14:35:07Z</time>
      </trkpt>
      <trkpt lat="48.12386" lon="6.89884">
        <ele>773.83</ele>
        <time>2014-02-16T14:35:29Z</time>
      </trkpt>
      <trkpt lat="48.12381" lon="6.89867">
        <ele>773.57</ele>
        <time>2014-02-16T14:35:41Z</time>
      </trkpt>
      <trkpt lat="48.12381" lon="6.89856">
        <ele>774.05</ele>
        <time>2014-02-16T14:36:03Z</time>
      </trkpt>
      <trkpt lat="48.12381" lon="6.89855">
        <ele>774.01</ele>
        <time>2014-02-16T14:36:04Z</time>
      </trkpt>
      <trkpt lat="48.12392" lon="6.89829">
        <ele>772.64</ele>
        <time>2014-02-16T14:36:26Z</time>
      </trkpt>
      <trkpt lat="48.124" lon="6.89797">
        <ele>771.67</ele>
        <time>2014-02-16T14:36:46Z</time>
      </trkpt>
      <trkpt lat="48.1241" lon="6.89775">
        <ele>771.54</ele>
        <time>2014-02-16T14:37:07Z</time>
      </trkpt>
      <trkpt lat="48.12416" lon="6.89758">
        <ele>771.48</ele>
        <time>2014-02-16T14:37:29Z</time>
      </trkpt>
      <trkpt lat="48.12431" lon="6.89756">
        <ele>771.5</ele>
        <time>2014-02-16T14:37:39Z</time>
      </trkpt>
      <trkpt lat="48.12473" lon="6.8976">
        <ele>771.13</ele>
        <time>2014-02-16T14:38:03Z</time>
      </trkpt>
      <trkpt lat="48.12499" lon="6.89767">
        <ele>771.06</ele>
        <time>2014-02-16T14:38:19Z</time>
      </trkpt>
      <trkpt lat="48.12517" lon="6.8978">
        <ele>770.23</ele>
        <time>2014-02-16T14:38:41Z</time>
      </trkpt>
      <trkpt lat="48.12544" lon="6.89785">
        <ele>768.67</ele>
        <time>2014-02-16T14:39:02Z</time>
      </trkpt>
      <trkpt lat="48.12564" lon="6.89782">
        <ele>767.96</ele>
        <time>2014-02-16T14:39:17Z</time>
      </trkpt>
      <trkpt lat="48.12572" lon="6.8978">
        <ele>767.93</ele>
        <time>2014-02-16T14:39:19Z</time>
      </trkpt>
      <trkpt lat="48.12574" lon="6.89781">
        <ele>768.03</ele>
        <time>2014-02-16T14:39:21Z</time>
      </trkpt>
      <trkpt lat="48.12585" lon="6.89781">
        <ele>767.88</ele>
        <time>2014-02-16T14:39:29Z</time>
      </trkpt>
      <trkpt lat="48.12595" lon="6.89781">
        <ele>767.72</ele>
        <time>2014-02-16T14:39:47Z</time>
      </trkpt>
      <trkpt lat="48.12603" lon="6.89779">
        <ele>766.83</ele>
        <time>2014-02-16T14:40:08Z</time>
      </trkpt>
      <trkpt lat="48.12615" lon="6.89772">
        <ele>766.03</ele>
        <time>2014-02-16T14:40:56Z</time>
      </trkpt>
      <trkpt lat="48.12621" lon="6.89773">
        <ele>765.9</ele>
        <time>2014-02-16T14:41:01Z</time>
      </trkpt>
      <trkpt lat="48.12637" lon="6.89774">
        <ele>764.67</ele>
        <time>2014-02-16T14:41:15Z</time>
      </trkpt>
      <trkpt lat="48.12641" lon="6.89776">
        <ele>764.42</ele>
        <time>2014-02-16T14:41:18Z</time>
      </trkpt>
      <trkpt lat="48.12663" lon="6.89782">
        <ele>763.69</ele>
        <time>2014-02-16T14:41:37Z</time>
      </trkpt>
      <trkpt lat="48.1267" lon="6.89783">
        <ele>763.72</ele>
        <time>2014-02-16T14:41:46Z</time>
      </trkpt>
      <trkpt lat="48.1268" lon="6.89779">
        <ele>763.21</ele>
        <time>2014-02-16T14:42:00Z</time>
      </trkpt>
      <trkpt lat="48.1269" lon="6.89777">
        <ele>762.56</ele>
        <time>2014-02-16T14:42:07Z</time>
      </trkpt>
      <trkpt lat="48.12716" lon="6.89765">
        <ele>760.33</ele>
        <time>2014-02-16T14:42:33Z</time>
      </trkpt>
      <trkpt lat="48.12729" lon="6.89753">
        <ele>760.05</ele>
        <time>2014-02-16T14:42:45Z</time>
      </trkpt>
      <trkpt lat="48.12738" lon="6.89747">
        <ele>759.34</ele>
        <time>2014-02-16T14:42:57Z</time>
      </trkpt>
      <trkpt lat="48.1274" lon="6.89745">
        <ele>759.11</ele>
        <time>2014-02-16T14:43:01Z</time>
      </trkpt>
      <trkpt lat="48.12766" lon="6.89735">
        <ele>759.01</ele>
        <time>2014-02-16T14:43:16Z</time>
      </trkpt>
      <trkpt lat="48.12786" lon="6.89728">
        <ele>759.23</ele>
        <time>2014-02-16T14:43:27Z</time>
      </trkpt>
      <trkpt lat="48.128" lon="6.8972">
        <ele>758.63</ele>
        <time>2014-02-16T14:43:50Z</time>
      </trkpt>
      <trkpt lat="48.1283" lon="6.89703">
        <ele>758.47</ele>
        <time>2014-02-16T14:44:15Z</time>
      </trkpt>
      <trkpt lat="48.12846" lon="6.89695">
        <ele>758.79</ele>
        <time>2014-02-16T14:44:28Z</time>
      </trkpt>
      <trkpt lat="48.1286" lon="6.89692">
        <ele>758.51</ele>
        <time>2014-02-16T14:44:44Z</time>
      </trkpt>
      <trkpt lat="48.12869" lon="6.89685">
        <ele>758.65</ele>
        <time>2014-02-16T14:45:16Z</time>
      </trkpt>
      <trkpt lat="48.12863" lon="6.89689">
        <ele>758.2</ele>
        <time>2014-02-16T14:45:44Z</time>
      </trkpt>
      <trkpt lat="48.12859" lon="6.89693">
        <ele>758.27</ele>
        <time>2014-02-16T14:45:48Z</time>
      </trkpt>
      <trkpt lat="48.12845" lon="6.89703">
        <ele>758.41</ele>
        <time>2014-02-16T14:46:00Z</time>
      </trkpt>
      <trkpt lat="48.12832" lon="6.89707">
        <ele>758.47</ele>
        <time>2014-02-16T14:46:11Z</time>
      </trkpt>
      <trkpt lat="48.12828" lon="6.89698">
        <ele>760.51</ele>
        <time>2014-02-16T14:46:30Z</time>
      </trkpt>
      <trkpt lat="48.12829" lon="6.89693">
        <ele>761.34</ele>
        <time>2014-02-16T14:46:37Z</time>
      </trkpt>
      <trkpt lat="48.12829" lon="6.8968">
        <ele>762.56</ele>
        <time>2014-02-16T14:46:51Z</time>
      </trkpt>
      <trkpt lat="48.12831" lon="6.89677">
        <ele>762.8</ele>
        <time>2014-02-16T14:46:54Z</time>
      </trkpt>
      <trkpt lat="48.12832" lon="6.89669">
        <ele>763.43</ele>
        <time>2014-02-16T14:46:59Z</time>
      </trkpt>
      <trkpt lat="48.12834" lon="6.89665">
        <ele>763.81</ele>
        <time>2014-02-16T14:47:02Z</time>
      </trkpt>
      <trkpt lat="48.12839" lon="6.89657">
        <ele>764.44</ele>
        <time>2014-02-16T14:47:07Z</time>
      </trkpt>
      <trkpt lat="48.12842" lon="6.89652">
        <ele>765.2</ele>
        <time>2014-02-16T14:47:12Z</time>
      </trkpt>
      <trkpt lat="48.12848" lon="6.89636">
        <ele>767.02</ele>
        <time>2014-02-16T14:47:25Z</time>
      </trkpt>
      <trkpt lat="48.12848" lon="6.89635">
        <ele>767.12</ele>
        <time>2014-02-16T14:47:26Z</time>
      </trkpt>
      <trkpt lat="48.12853" lon="6.89625">
        <ele>767.94</ele>
        <time>2014-02-16T14:47:33Z</time>
      </trkpt>
      <trkpt lat="48.12856" lon="6.89606">
        <ele>770.23</ele>
        <time>2014-02-16T14:47:56Z</time>
      </trkpt>
      <trkpt lat="48.12856" lon="6.89601">
        <ele>770.45</ele>
        <time>2014-02-16T14:48:00Z</time>
      </trkpt>
      <trkpt lat="48.12863" lon="6.89571">
        <ele>773.58</ele>
        <time>2014-02-16T14:48:20Z</time>
      </trkpt>
      <trkpt lat="48.12863" lon="6.89554">
        <ele>774.76</ele>
        <time>2014-02-16T14:48:33Z</time>
      </trkpt>
      <trkpt lat="48.12865" lon="6.89531">
        <ele>776.55</ele>
        <time>2014-02-16T14:48:50Z</time>
      </trkpt>
      <trkpt lat="48.12865" lon="6.89523">
        <ele>776.69</ele>
        <time>2014-02-16T14:48:57Z</time>
      </trkpt>
      <trkpt lat="48.12865" lon="6.89513">
        <ele>776.92</ele>
        <time>2014-02-16T14:49:04Z</time>
      </trkpt>
      <trkpt lat="48.12865" lon="6.89509">
        <ele>776.88</ele>
        <time>2014-02-16T14:49:06Z</time>
      </trkpt>
      <trkpt lat="48.12862" lon="6.8949">
        <ele>776.88</ele>
        <time>2014-02-16T14:49:17Z</time>
      </trkpt>
      <trkpt lat="48.12861" lon="6.89482">
        <ele>776.61</ele>
        <time>2014-02-16T14:49:21Z</time>
      </trkpt>
      <trkpt lat="48.12865" lon="6.89462">
        <ele>776.5</ele>
        <time>2014-02-16T14:49:34Z</time>
      </trkpt>
      <trkpt lat="48.12868" lon="6.89447">
        <ele>777.51</ele>
        <time>2014-02-16T14:49:52Z</time>
      </trkpt>
      <trkpt lat="48.12873" lon="6.89412">
        <ele>776.68</ele>
        <time>2014-02-16T14:50:22Z</time>
      </trkpt>
      <trkpt lat="48.12869" lon="6.89418">
        <ele>777.35</ele>
        <time>2014-02-16T14:50:49Z</time>
      </trkpt>
      <trkpt lat="48.12863" lon="6.89407">
        <ele>777.3</ele>
        <time>2014-02-16T14:51:20Z</time>
      </trkpt>
      <trkpt lat="48.1287" lon="6.89406">
        <ele>777.26</ele>
        <time>2014-02-16T14:51:32Z</time>
      </trkpt>
      <trkpt lat="48.12871" lon="6.89394">
        <ele>776.9</ele>
        <time>2014-02-16T14:52:07Z</time>
      </trkpt>
      <trkpt lat="48.12875" lon="6.89399">
        <ele>776.23</ele>
        <time>2014-02-16T14:52:43Z</time>
      </trkpt>
      <trkpt lat="48.12876" lon="6.89398">
        <ele>776.95</ele>
        <time>2014-02-16T14:53:17Z</time>
      </trkpt>
      <trkpt lat="48.12871" lon="6.89395">
        <ele>776.71</ele>
        <time>2014-02-16T14:53:41Z</time>
      </trkpt>
      <trkpt lat="48.12868" lon="6.89397">
        <ele>777.11</ele>
        <time>2014-02-16T14:53:59Z</time>
      </trkpt>
      <trkpt lat="48.12878" lon="6.89369">
        <ele>777.12</ele>
        <time>2014-02-16T14:54:51Z</time>
      </trkpt>
      <trkpt lat="48.1288" lon="6.89367">
        <ele>777.1</ele>
        <time>2014-02-16T14:54:53Z</time>
      </trkpt>
      <trkpt lat="48.12886" lon="6.89354">
        <ele>777.31</ele>
        <time>2014-02-16T14:55:03Z</time>
      </trkpt>
      <trkpt lat="48.1289" lon="6.89346">
        <ele>778.11</ele>
        <time>2014-02-16T14:55:15Z</time>
      </trkpt>
      <trkpt lat="48.12893" lon="6.89332">
        <ele>779.85</ele>
        <time>2014-02-16T14:55:29Z</time>
      </trkpt>
      <trkpt lat="48.12892" lon="6.89323">
        <ele>782</ele>
        <time>2014-02-16T14:55:44Z</time>
      </trkpt>
      <trkpt lat="48.12897" lon="6.89309">
        <ele>782.85</ele>
        <time>2014-02-16T14:56:13Z</time>
      </trkpt>
      <trkpt lat="48.12904" lon="6.89291">
        <ele>785.03</ele>
        <time>2014-02-16T14:56:30Z</time>
      </trkpt>
      <trkpt lat="48.12912" lon="6.8928">
        <ele>786.62</ele>
        <time>2014-02-16T14:56:50Z</time>
      </trkpt>
      <trkpt lat="48.12916" lon="6.8927">
        <ele>789.8</ele>
        <time>2014-02-16T14:57:10Z</time>
      </trkpt>
      <trkpt lat="48.12916" lon="6.89259">
        <ele>792.08</ele>
        <time>2014-02-16T14:57:26Z</time>
      </trkpt>
      <trkpt lat="48.12916" lon="6.8925">
        <ele>794.67</ele>
        <time>2014-02-16T14:57:40Z</time>
      </trkpt>
      <trkpt lat="48.12916" lon="6.89248">
        <ele>796.64</ele>
        <time>2014-02-16T14:58:02Z</time>
      </trkpt>
      <trkpt lat="48.12918" lon="6.89247">
        <ele>797.38</ele>
        <time>2014-02-16T14:58:29Z</time>
      </trkpt>
      <trkpt lat="48.12918" lon="6.89238">
        <ele>798.97</ele>
        <time>2014-02-16T14:59:01Z</time>
      </trkpt>
      <trkpt lat="48.12919" lon="6.89229">
        <ele>801.98</ele>
        <time>2014-02-16T14:59:22Z</time>
      </trkpt>
      <trkpt lat="48.1292" lon="6.89223">
        <ele>805.13</ele>
        <time>2014-02-16T14:59:37Z</time>
      </trkpt>
      <trkpt lat="48.12923" lon="6.89215">
        <ele>808.31</ele>
        <time>2014-02-16T14:59:55Z</time>
      </trkpt>
      <trkpt lat="48.12923" lon="6.89209">
        <ele>811.09</ele>
        <time>2014-02-16T15:00:17Z</time>
      </trkpt>
      <trkpt lat="48.12925" lon="6.89206">
        <ele>812.92</ele>
        <time>2014-02-16T15:00:42Z</time>
      </trkpt>
      <trkpt lat="48.12924" lon="6.89207">
        <ele>813.23</ele>
        <time>2014-02-16T15:01:09Z</time>
      </trkpt>
      <trkpt lat="48.12924" lon="6.89207">
        <ele>813.14</ele>
        <time>2014-02-16T15:01:30Z</time>
      </trkpt>
      <trkpt lat="48.12924" lon="6.89207">
        <ele>813.27</ele>
        <time>2014-02-16T15:01:56Z</time>
      </trkpt>
      <trkpt lat="48.12925" lon="6.8921">
        <ele>812.43</ele>
        <time>2014-02-16T15:02:16Z</time>
      </trkpt>
      <trkpt lat="48.12929" lon="6.89211">
        <ele>812.09</ele>
        <time>2014-02-16T15:02:36Z</time>
      </trkpt>
      <trkpt lat="48.12932" lon="6.89212">
        <ele>811.39</ele>
        <time>2014-02-16T15:02:56Z</time>
      </trkpt>
      <trkpt lat="48.12938" lon="6.89205">
        <ele>812.34</ele>
        <time>2014-02-16T15:03:15Z</time>
      </trkpt>
      <trkpt lat="48.12938" lon="6.89201">
        <ele>815.38</ele>
        <time>2014-02-16T15:03:31Z</time>
      </trkpt>
      <trkpt lat="48.12943" lon="6.89194">
        <ele>817.3</ele>
        <time>2014-02-16T15:03:47Z</time>
      </trkpt>
      <trkpt lat="48.12944" lon="6.89183">
        <ele>819.98</ele>
        <time>2014-02-16T15:04:07Z</time>
      </trkpt>
      <trkpt lat="48.12947" lon="6.89173">
        <ele>821.38</ele>
        <time>2014-02-16T15:04:30Z</time>
      </trkpt>
      <trkpt lat="48.12941" lon="6.8917">
        <ele>824.41</ele>
        <time>2014-02-16T15:04:47Z</time>
      </trkpt>
      <trkpt lat="48.12941" lon="6.89164">
        <ele>826.06</ele>
        <time>2014-02-16T15:05:09Z</time>
      </trkpt>
      <trkpt lat="48.12941" lon="6.89169">
        <ele>825.22</ele>
        <time>2014-02-16T15:05:31Z</time>
      </trkpt>
      <trkpt lat="48.12939" lon="6.89163">
        <ele>826.38</ele>
        <time>2014-02-16T15:05:52Z</time>
      </trkpt>
      <trkpt lat="48.12941" lon="6.89155">
        <ele>827.9</ele>
        <time>2014-02-16T15:06:00Z</time>
      </trkpt>
      <trkpt lat="48.12943" lon="6.8915">
        <ele>829.33</ele>
        <time>2014-02-16T15:06:17Z</time>
      </trkpt>
      <trkpt lat="48.12943" lon="6.8915">
        <ele>829.24</ele>
        <time>2014-02-16T15:06:46Z</time>
      </trkpt>
      <trkpt lat="48.12946" lon="6.89152">
        <ele>829.59</ele>
        <time>2014-02-16T15:07:06Z</time>
      </trkpt>
      <trkpt lat="48.12958" lon="6.89149">
        <ele>828.85</ele>
        <time>2014-02-16T15:07:29Z</time>
      </trkpt>
      <trkpt lat="48.12961" lon="6.89148">
        <ele>828.59</ele>
        <time>2014-02-16T15:07:32Z</time>
      </trkpt>
      <trkpt lat="48.12974" lon="6.89144">
        <ele>827.6</ele>
        <time>2014-02-16T15:07:47Z</time>
      </trkpt>
      <trkpt lat="48.12994" lon="6.89137">
        <ele>826.63</ele>
        <time>2014-02-16T15:08:07Z</time>
      </trkpt>
      <trkpt lat="48.13016" lon="6.89126">
        <ele>824.71</ele>
        <time>2014-02-16T15:08:28Z</time>
      </trkpt>
      <trkpt lat="48.13034" lon="6.89108">
        <ele>823.33</ele>
        <time>2014-02-16T15:08:49Z</time>
      </trkpt>
      <trkpt lat="48.13051" lon="6.89083">
        <ele>822.2</ele>
        <time>2014-02-16T15:09:12Z</time>
      </trkpt>
      <trkpt lat="48.13064" lon="6.89055">
        <ele>821.39</ele>
        <time>2014-02-16T15:09:32Z</time>
      </trkpt>
      <trkpt lat="48.13073" lon="6.8903">
        <ele>820.34</ele>
        <time>2014-02-16T15:09:53Z</time>
      </trkpt>
      <trkpt lat="48.13081" lon="6.88997">
        <ele>818.51</ele>
        <time>2014-02-16T15:10:17Z</time>
      </trkpt>
      <trkpt lat="48.13086" lon="6.88963">
        <ele>816.83</ele>
        <time>2014-02-16T15:10:40Z</time>
      </trkpt>
      <trkpt lat="48.13087" lon="6.88949">
        <ele>815.5</ele>
        <time>2014-02-16T15:10:52Z</time>
      </trkpt>
      <trkpt lat="48.13088" lon="6.88933">
        <ele>813.93</ele>
        <time>2014-02-16T15:11:10Z</time>
      </trkpt>
      <trkpt lat="48.13087" lon="6.88922">
        <ele>813.37</ele>
        <time>2014-02-16T15:11:16Z</time>
      </trkpt>
      <trkpt lat="48.13094" lon="6.88872">
        <ele>811.61</ele>
        <time>2014-02-16T15:11:39Z</time>
      </trkpt>
      <trkpt lat="48.13094" lon="6.88859">
        <ele>810.63</ele>
        <time>2014-02-16T15:11:47Z</time>
      </trkpt>
      <trkpt lat="48.131" lon="6.88834">
        <ele>808.57</ele>
        <time>2014-02-16T15:12:09Z</time>
      </trkpt>
      <trkpt lat="48.13116" lon="6.88812">
        <ele>805.98</ele>
        <time>2014-02-16T15:12:30Z</time>
      </trkpt>
      <trkpt lat="48.13123" lon="6.888">
        <ele>804.3</ele>
        <time>2014-02-16T15:12:46Z</time>
      </trkpt>
      <trkpt lat="48.13133" lon="6.88791">
        <ele>803.6</ele>
        <time>2014-02-16T15:13:07Z</time>
      </trkpt>
      <trkpt lat="48.1314" lon="6.88768">
        <ele>801.17</ele>
        <time>2014-02-16T15:13:26Z</time>
      </trkpt>
      <trkpt lat="48.13152" lon="6.88744">
        <ele>798.14</ele>
        <time>2014-02-16T15:13:47Z</time>
      </trkpt>
      <trkpt lat="48.13155" lon="6.88722">
        <ele>795.84</ele>
        <time>2014-02-16T15:14:00Z</time>
      </trkpt>
      <trkpt lat="48.1316" lon="6.88677">
        <ele>792.81</ele>
        <time>2014-02-16T15:14:22Z</time>
      </trkpt>
      <trkpt lat="48.13172" lon="6.88656">
        <ele>789.71</ele>
        <time>2014-02-16T15:14:44Z</time>
      </trkpt>
      <trkpt lat="48.13187" lon="6.88633">
        <ele>786.71</ele>
        <time>2014-02-16T15:15:04Z</time>
      </trkpt>
      <trkpt lat="48.13208" lon="6.88602">
        <ele>783.46</ele>
        <time>2014-02-16T15:15:28Z</time>
      </trkpt>
      <trkpt lat="48.13218" lon="6.8858">
        <ele>780.44</ele>
        <time>2014-02-16T15:15:44Z</time>
      </trkpt>
      <trkpt lat="48.13221" lon="6.8857">
        <ele>779.85</ele>
        <time>2014-02-16T15:15:50Z</time>
      </trkpt>
      <trkpt lat="48.13237" lon="6.88535">
        <ele>777.62</ele>
        <time>2014-02-16T15:16:15Z</time>
      </trkpt>
      <trkpt lat="48.13254" lon="6.88505">
        <ele>775.62</ele>
        <time>2014-02-16T15:16:37Z</time>
      </trkpt>
      <trkpt lat="48.13264" lon="6.88486">
        <ele>774.58</ele>
        <time>2014-02-16T15:16:54Z</time>
      </trkpt>
      <trkpt lat="48.1327" lon="6.88472">
        <ele>774.09</ele>
        <time>2014-02-16T15:17:11Z</time>
      </trkpt>
      <trkpt lat="48.13271" lon="6.88455">
        <ele>773.36</ele>
        <time>2014-02-16T15:17:20Z</time>
      </trkpt>
      <trkpt lat="48.13271" lon="6.88449">
        <ele>773.19</ele>
        <time>2014-02-16T15:17:23Z</time>
      </trkpt>
      <trkpt lat="48.13271" lon="6.8844">
        <ele>773</ele>
        <time>2014-02-16T15:17:27Z</time>
      </trkpt>
      <trkpt lat="48.13272" lon="6.88436">
        <ele>772.89</ele>
        <time>2014-02-16T15:17:29Z</time>
      </trkpt>
      <trkpt lat="48.1327" lon="6.88393">
        <ele>772.38</ele>
        <time>2014-02-16T15:17:49Z</time>
      </trkpt>
      <trkpt lat="48.13272" lon="6.8838">
        <ele>772.07</ele>
        <time>2014-02-16T15:17:56Z</time>
      </trkpt>
      <trkpt lat="48.13282" lon="6.88349">
        <ele>771.58</ele>
        <time>2014-02-16T15:18:15Z</time>
      </trkpt>
      <trkpt lat="48.13291" lon="6.88328">
        <ele>771.18</ele>
        <time>2014-02-16T15:18:30Z</time>
      </trkpt>
      <trkpt lat="48.13304" lon="6.88302">
        <ele>771.03</ele>
        <time>2014-02-16T15:18:50Z</time>
      </trkpt>
      <trkpt lat="48.13318" lon="6.88287">
        <ele>770.19</ele>
        <time>2014-02-16T15:19:09Z</time>
      </trkpt>
      <trkpt lat="48.13336" lon="6.88267">
        <ele>768.45</ele>
        <time>2014-02-16T15:19:31Z</time>
      </trkpt>
      <trkpt lat="48.13344" lon="6.88261">
        <ele>767.75</ele>
        <time>2014-02-16T15:19:37Z</time>
      </trkpt>
      <trkpt lat="48.13366" lon="6.88239">
        <ele>765.39</ele>
        <time>2014-02-16T15:20:00Z</time>
      </trkpt>
      <trkpt lat="48.13388" lon="6.88219">
        <ele>763.02</ele>
        <time>2014-02-16T15:20:21Z</time>
      </trkpt>
      <trkpt lat="48.13407" lon="6.88203">
        <ele>761.84</ele>
        <time>2014-02-16T15:20:39Z</time>
      </trkpt>
      <trkpt lat="48.1342" lon="6.88189">
        <ele>760.59</ele>
        <time>2014-02-16T15:20:57Z</time>
      </trkpt>
      <trkpt lat="48.13439" lon="6.88178">
        <ele>758.33</ele>
        <time>2014-02-16T15:21:20Z</time>
      </trkpt>
      <trkpt lat="48.13463" lon="6.88169">
        <ele>756.17</ele>
        <time>2014-02-16T15:21:40Z</time>
      </trkpt>
      <trkpt lat="48.13484" lon="6.88149">
        <ele>754.78</ele>
        <time>2014-02-16T15:21:59Z</time>
      </trkpt>
      <trkpt lat="48.13487" lon="6.88142">
        <ele>754.65</ele>
        <time>2014-02-16T15:22:04Z</time>
      </trkpt>
      <trkpt lat="48.13501" lon="6.88119">
        <ele>754.02</ele>
        <time>2014-02-16T15:22:19Z</time>
      </trkpt>
      <trkpt lat="48.1351" lon="6.88093">
        <ele>753.46</ele>
        <time>2014-02-16T15:22:36Z</time>
      </trkpt>
      <trkpt lat="48.13518" lon="6.88068">
        <ele>753.6</ele>
        <time>2014-02-16T15:22:51Z</time>
      </trkpt>
      <trkpt lat="48.13519" lon="6.88059">
        <ele>753.22</ele>
        <time>2014-02-16T15:22:57Z</time>
      </trkpt>
      <trkpt lat="48.13526" lon="6.88034">
        <ele>752.59</ele>
        <time>2014-02-16T15:23:12Z</time>
      </trkpt>
      <trkpt lat="48.13528" lon="6.88018">
        <ele>752.4</ele>
        <time>2014-02-16T15:23:20Z</time>
      </trkpt>
      <trkpt lat="48.13532" lon="6.88009">
        <ele>752.28</ele>
        <time>2014-02-16T15:23:25Z</time>
      </trkpt>
      <trkpt lat="48.13533" lon="6.88004">
        <ele>752.27</ele>
        <time>2014-02-16T15:23:28Z</time>
      </trkpt>
      <trkpt lat="48.13537" lon="6.87993">
        <ele>752.27</ele>
        <time>2014-02-16T15:23:34Z</time>
      </trkpt>
      <trkpt lat="48.13544" lon="6.87968">
        <ele>752.66</ele>
        <time>2014-02-16T15:23:47Z</time>
      </trkpt>
      <trkpt lat="48.13547" lon="6.87961">
        <ele>752.74</ele>
        <time>2014-02-16T15:23:51Z</time>
      </trkpt>
      <trkpt lat="48.13552" lon="6.87939">
        <ele>751.91</ele>
        <time>2014-02-16T15:24:04Z</time>
      </trkpt>
      <trkpt lat="48.13553" lon="6.87932">
        <ele>751.96</ele>
        <time>2014-02-16T15:24:08Z</time>
      </trkpt>
      <trkpt lat="48.13555" lon="6.87922">
        <ele>752.23</ele>
        <time>2014-02-16T15:24:14Z</time>
      </trkpt>
      <trkpt lat="48.13558" lon="6.87909">
        <ele>751.97</ele>
        <time>2014-02-16T15:24:22Z</time>
      </trkpt>
      <trkpt lat="48.1356" lon="6.879">
        <ele>751.87</ele>
        <time>2014-02-16T15:24:27Z</time>
      </trkpt>
      <trkpt lat="48.13563" lon="6.87894">
        <ele>751.84</ele>
        <time>2014-02-16T15:24:31Z</time>
      </trkpt>
      <trkpt lat="48.13563" lon="6.87888">
        <ele>751.74</ele>
        <time>2014-02-16T15:24:34Z</time>
      </trkpt>
      <trkpt lat="48.1357" lon="6.87861">
        <ele>751.17</ele>
        <time>2014-02-16T15:24:49Z</time>
      </trkpt>
      <trkpt lat="48.13574" lon="6.8785">
        <ele>750.8</ele>
        <time>2014-02-16T15:24:56Z</time>
      </trkpt>
      <trkpt lat="48.13573" lon="6.8784">
        <ele>750.43</ele>
        <time>2014-02-16T15:25:03Z</time>
      </trkpt>
      <trkpt lat="48.13573" lon="6.87832">
        <ele>750.03</ele>
        <time>2014-02-16T15:25:07Z</time>
      </trkpt>
      <trkpt lat="48.13582" lon="6.8781">
        <ele>749.09</ele>
        <time>2014-02-16T15:25:23Z</time>
      </trkpt>
      <trkpt lat="48.13585" lon="6.87798">
        <ele>748.56</ele>
        <time>2014-02-16T15:25:34Z</time>
      </trkpt>
      <trkpt lat="48.13587" lon="6.87778">
        <ele>748.06</ele>
        <time>2014-02-16T15:25:55Z</time>
      </trkpt>
      <trkpt lat="48.13591" lon="6.87752">
        <ele>747.13</ele>
        <time>2014-02-16T15:26:14Z</time>
      </trkpt>
      <trkpt lat="48.13599" lon="6.87738">
        <ele>746.77</ele>
        <time>2014-02-16T15:26:25Z</time>
      </trkpt>
      <trkpt lat="48.13603" lon="6.87717">
        <ele>746.15</ele>
        <time>2014-02-16T15:26:35Z</time>
      </trkpt>
      <trkpt lat="48.13604" lon="6.87711">
        <ele>745.97</ele>
        <time>2014-02-16T15:26:38Z</time>
      </trkpt>
      <trkpt lat="48.13611" lon="6.87682">
        <ele>744.91</ele>
        <time>2014-02-16T15:26:54Z</time>
      </trkpt>
      <trkpt lat="48.13618" lon="6.87657">
        <ele>744</ele>
        <time>2014-02-16T15:27:09Z</time>
      </trkpt>
      <trkpt lat="48.13626" lon="6.87629">
        <ele>743.02</ele>
        <time>2014-02-16T15:27:25Z</time>
      </trkpt>
      <trkpt lat="48.1363" lon="6.8762">
        <ele>742.56</ele>
        <time>2014-02-16T15:27:31Z</time>
      </trkpt>
      <trkpt lat="48.13638" lon="6.87594">
        <ele>741.37</ele>
        <time>2014-02-16T15:27:48Z</time>
      </trkpt>
      <trkpt lat="48.13643" lon="6.87568">
        <ele>740.97</ele>
        <time>2014-02-16T15:28:03Z</time>
      </trkpt>
      <trkpt lat="48.13655" lon="6.87524">
        <ele>739.97</ele>
        <time>2014-02-16T15:28:26Z</time>
      </trkpt>
      <trkpt lat="48.13658" lon="6.87517">
        <ele>739.74</ele>
        <time>2014-02-16T15:28:29Z</time>
      </trkpt>
      <trkpt lat="48.13666" lon="6.87492">
        <ele>738.67</ele>
        <time>2014-02-16T15:28:44Z</time>
      </trkpt>
      <trkpt lat="48.13675" lon="6.87478">
        <ele>738.09</ele>
        <time>2014-02-16T15:28:54Z</time>
      </trkpt>
      <trkpt lat="48.13693" lon="6.87448">
        <ele>738.77</ele>
        <time>2014-02-16T15:29:20Z</time>
      </trkpt>
      <trkpt lat="48.13713" lon="6.87423">
        <ele>739.87</ele>
        <time>2014-02-16T15:29:41Z</time>
      </trkpt>
      <trkpt lat="48.13724" lon="6.87402">
        <ele>740.53</ele>
        <time>2014-02-16T15:29:57Z</time>
      </trkpt>
      <trkpt lat="48.13736" lon="6.87382">
        <ele>741.49</ele>
        <time>2014-02-16T15:30:11Z</time>
      </trkpt>
      <trkpt lat="48.13749" lon="6.8736">
        <ele>742.18</ele>
        <time>2014-02-16T15:30:27Z</time>
      </trkpt>
      <trkpt lat="48.13754" lon="6.87351">
        <ele>742.67</ele>
        <time>2014-02-16T15:30:33Z</time>
      </trkpt>
      <trkpt lat="48.13759" lon="6.87325">
        <ele>742.6</ele>
        <time>2014-02-16T15:30:48Z</time>
      </trkpt>
      <trkpt lat="48.13766" lon="6.87296">
        <ele>743.58</ele>
        <time>2014-02-16T15:31:07Z</time>
      </trkpt>
      <trkpt lat="48.13769" lon="6.87269">
        <ele>743.75</ele>
        <time>2014-02-16T15:31:21Z</time>
      </trkpt>
      <trkpt lat="48.13769" lon="6.87267">
        <ele>743.83</ele>
        <time>2014-02-16T15:31:22Z</time>
      </trkpt>
      <trkpt lat="48.13776" lon="6.87233">
        <ele>744.83</ele>
        <time>2014-02-16T15:31:45Z</time>
      </trkpt>
      <trkpt lat="48.13784" lon="6.87208">
        <ele>745.94</ele>
        <time>2014-02-16T15:32:02Z</time>
      </trkpt>
      <trkpt lat="48.13793" lon="6.87179">
        <ele>747.77</ele>
        <time>2014-02-16T15:32:24Z</time>
      </trkpt>
      <trkpt lat="48.13804" lon="6.8716">
        <ele>748.69</ele>
        <time>2014-02-16T15:32:44Z</time>
      </trkpt>
      <trkpt lat="48.13816" lon="6.87152">
        <ele>748.7</ele>
        <time>2014-02-16T15:32:56Z</time>
      </trkpt>
      <trkpt lat="48.13838" lon="6.87146">
        <ele>748.34</ele>
        <time>2014-02-16T15:33:14Z</time>
      </trkpt>
      <trkpt lat="48.13857" lon="6.87141">
        <ele>747.64</ele>
        <time>2014-02-16T15:33:30Z</time>
      </trkpt>
      <trkpt lat="48.13873" lon="6.87137">
        <ele>747.49</ele>
        <time>2014-02-16T15:33:46Z</time>
      </trkpt>
      <trkpt lat="48.13891" lon="6.87132">
        <ele>746.88</ele>
        <time>2014-02-16T15:34:03Z</time>
      </trkpt>
      <trkpt lat="48.13914" lon="6.87126">
        <ele>746.58</ele>
        <time>2014-02-16T15:34:25Z</time>
      </trkpt>
      <trkpt lat="48.13917" lon="6.87124">
        <ele>746.62</ele>
        <time>2014-02-16T15:34:28Z</time>
      </trkpt>
      <trkpt lat="48.13939" lon="6.87119">
        <ele>746.68</ele>
        <time>2014-02-16T15:34:47Z</time>
      </trkpt>
      <trkpt lat="48.13963" lon="6.87108">
        <ele>745.1</ele>
        <time>2014-02-16T15:35:10Z</time>
      </trkpt>
      <trkpt lat="48.13966" lon="6.87109">
        <ele>745.13</ele>
        <time>2014-02-16T15:35:13Z</time>
      </trkpt>
      <trkpt lat="48.13992" lon="6.87098">
        <ele>744.49</ele>
        <time>2014-02-16T15:35:37Z</time>
      </trkpt>
      <trkpt lat="48.14016" lon="6.87081">
        <ele>743.62</ele>
        <time>2014-02-16T15:35:58Z</time>
      </trkpt>
      <trkpt lat="48.14032" lon="6.87063">
        <ele>742.42</ele>
        <time>2014-02-16T15:36:13Z</time>
      </trkpt>
      <trkpt lat="48.14034" lon="6.87058">
        <ele>742.22</ele>
        <time>2014-02-16T15:36:16Z</time>
      </trkpt>
      <trkpt lat="48.14036" lon="6.87053">
        <ele>741.8</ele>
        <time>2014-02-16T15:36:20Z</time>
      </trkpt>
      <trkpt lat="48.14049" lon="6.87034">
        <ele>740.05</ele>
        <time>2014-02-16T15:36:36Z</time>
      </trkpt>
      <trkpt lat="48.14066" lon="6.87021">
        <ele>739.08</ele>
        <time>2014-02-16T15:36:51Z</time>
      </trkpt>
      <trkpt lat="48.1409" lon="6.87006">
        <ele>738.14</ele>
        <time>2014-02-16T15:37:11Z</time>
      </trkpt>
      <trkpt lat="48.14108" lon="6.86993">
        <ele>736.6</ele>
        <time>2014-02-16T15:37:30Z</time>
      </trkpt>
      <trkpt lat="48.14129" lon="6.86973">
        <ele>734.98</ele>
        <time>2014-02-16T15:37:50Z</time>
      </trkpt>
      <trkpt lat="48.14147" lon="6.86956">
        <ele>733.81</ele>
        <time>2014-02-16T15:38:09Z</time>
      </trkpt>
      <trkpt lat="48.14148" lon="6.86952">
        <ele>733.86</ele>
        <time>2014-02-16T15:38:12Z</time>
      </trkpt>
      <trkpt lat="48.14149" lon="6.86948">
        <ele>733.95</ele>
        <time>2014-02-16T15:38:15Z</time>
      </trkpt>
      <trkpt lat="48.1415" lon="6.86945">
        <ele>734.01</ele>
        <time>2014-02-16T15:38:17Z</time>
      </trkpt>
      <trkpt lat="48.14153" lon="6.86918">
        <ele>734.2</ele>
        <time>2014-02-16T15:38:36Z</time>
      </trkpt>
      <trkpt lat="48.14152" lon="6.86909">
        <ele>734.01</ele>
        <time>2014-02-16T15:38:42Z</time>
      </trkpt>
      <trkpt lat="48.14151" lon="6.86883">
        <ele>733.84</ele>
        <time>2014-02-16T15:38:57Z</time>
      </trkpt>
      <trkpt lat="48.14152" lon="6.86861">
        <ele>733.18</ele>
        <time>2014-02-16T15:39:09Z</time>
      </trkpt>
      <trkpt lat="48.14155" lon="6.86847">
        <ele>732.83</ele>
        <time>2014-02-16T15:39:23Z</time>
      </trkpt>
      <trkpt lat="48.14157" lon="6.86845">
        <ele>732.57</ele>
        <time>2014-02-16T15:39:30Z</time>
      </trkpt>
      <trkpt lat="48.1416" lon="6.86838">
        <ele>732.31</ele>
        <time>2014-02-16T15:39:35Z</time>
      </trkpt>
      <trkpt lat="48.14173" lon="6.86808">
        <ele>731.91</ele>
        <time>2014-02-16T15:39:56Z</time>
      </trkpt>
      <trkpt lat="48.14181" lon="6.86789">
        <ele>730.65</ele>
        <time>2014-02-16T15:40:10Z</time>
      </trkpt>
      <trkpt lat="48.14184" lon="6.86774">
        <ele>729.25</ele>
        <time>2014-02-16T15:40:26Z</time>
      </trkpt>
      <trkpt lat="48.14185" lon="6.86775">
        <ele>728.72</ele>
        <time>2014-02-16T15:40:49Z</time>
      </trkpt>
      <trkpt lat="48.14188" lon="6.86773">
        <ele>728.91</ele>
        <time>2014-02-16T15:41:19Z</time>
      </trkpt>
      <trkpt lat="48.14191" lon="6.86771">
        <ele>728.99</ele>
        <time>2014-02-16T15:41:51Z</time>
      </trkpt>
      <trkpt lat="48.14188" lon="6.86756">
        <ele>728.02</ele>
        <time>2014-02-16T15:42:10Z</time>
      </trkpt>
      <trkpt lat="48.1419" lon="6.86729">
        <ele>725.72</ele>
        <time>2014-02-16T15:42:30Z</time>
      </trkpt>
      <trkpt lat="48.14195" lon="6.86718">
        <ele>724.71</ele>
        <time>2014-02-16T15:42:38Z</time>
      </trkpt>
      <trkpt lat="48.14213" lon="6.8671">
        <ele>722.67</ele>
        <time>2014-02-16T15:42:57Z</time>
      </trkpt>
      <trkpt lat="48.14216" lon="6.86711">
        <ele>722.34</ele>
        <time>2014-02-16T15:43:00Z</time>
      </trkpt>
      <trkpt lat="48.14219" lon="6.86713">
        <ele>722.16</ele>
        <time>2014-02-16T15:43:02Z</time>
      </trkpt>
      <trkpt lat="48.14225" lon="6.86716">
        <ele>721.27</ele>
        <time>2014-02-16T15:43:10Z</time>
      </trkpt>
      <trkpt lat="48.14227" lon="6.86717">
        <ele>721.11</ele>
        <time>2014-02-16T15:43:12Z</time>
      </trkpt>
      <trkpt lat="48.14245" lon="6.86731">
        <ele>719.77</ele>
        <time>2014-02-16T15:43:29Z</time>
      </trkpt>
      <trkpt lat="48.14263" lon="6.86746">
        <ele>717.17</ele>
        <time>2014-02-16T15:43:48Z</time>
      </trkpt>
      <trkpt lat="48.14281" lon="6.86761">
        <ele>714.71</ele>
        <time>2014-02-16T15:44:06Z</time>
      </trkpt>
      <trkpt lat="48.14295" lon="6.86779">
        <ele>711.69</ele>
        <time>2014-02-16T15:44:27Z</time>
      </trkpt>
      <trkpt lat="48.14297" lon="6.8678">
        <ele>710.93</ele>
        <time>2014-02-16T15:44:39Z</time>
      </trkpt>
      <trkpt lat="48.14305" lon="6.86798">
        <ele>710.2</ele>
        <time>2014-02-16T15:44:56Z</time>
      </trkpt>
      <trkpt lat="48.14317" lon="6.8682">
        <ele>708.64</ele>
        <time>2014-02-16T15:45:18Z</time>
      </trkpt>
      <trkpt lat="48.14325" lon="6.8683">
        <ele>707.78</ele>
        <time>2014-02-16T15:45:41Z</time>
      </trkpt>
      <trkpt lat="48.14334" lon="6.86842">
        <ele>707.06</ele>
        <time>2014-02-16T15:45:54Z</time>
      </trkpt>
      <trkpt lat="48.14348" lon="6.86857">
        <ele>705</ele>
        <time>2014-02-16T15:46:11Z</time>
      </trkpt>
      <trkpt lat="48.14362" lon="6.86869">
        <ele>703.08</ele>
        <time>2014-02-16T15:46:27Z</time>
      </trkpt>
      <trkpt lat="48.14363" lon="6.86869">
        <ele>703.03</ele>
        <time>2014-02-16T15:46:28Z</time>
      </trkpt>
      <trkpt lat="48.14367" lon="6.86872">
        <ele>702.74</ele>
        <time>2014-02-16T15:46:32Z</time>
      </trkpt>
      <trkpt lat="48.14374" lon="6.86877">
        <ele>701.86</ele>
        <time>2014-02-16T15:46:39Z</time>
      </trkpt>
      <trkpt lat="48.14386" lon="6.86882">
        <ele>700.61</ele>
        <time>2014-02-16T15:46:50Z</time>
      </trkpt>
      <trkpt lat="48.1439" lon="6.86882">
        <ele>699.72</ele>
        <time>2014-02-16T15:46:54Z</time>
      </trkpt>
      <trkpt lat="48.14409" lon="6.86878">
        <ele>696.93</ele>
        <time>2014-02-16T15:47:12Z</time>
      </trkpt>
      <trkpt lat="48.14424" lon="6.86875">
        <ele>694.51</ele>
        <time>2014-02-16T15:47:31Z</time>
      </trkpt>
      <trkpt lat="48.14425" lon="6.86875">
        <ele>694.43</ele>
        <time>2014-02-16T15:47:32Z</time>
      </trkpt>
      <trkpt lat="48.1444" lon="6.86891">
        <ele>692.43</ele>
        <time>2014-02-16T15:47:49Z</time>
      </trkpt>
      <trkpt lat="48.14457" lon="6.8691">
        <ele>689.53</ele>
        <time>2014-02-16T15:48:07Z</time>
      </trkpt>
      <trkpt lat="48.14461" lon="6.86915">
        <ele>688.75</ele>
        <time>2014-02-16T15:48:12Z</time>
      </trkpt>
      <trkpt lat="48.14475" lon="6.86915">
        <ele>687.08</ele>
        <time>2014-02-16T15:48:25Z</time>
      </trkpt>
      <trkpt lat="48.14491" lon="6.86913">
        <ele>685.62</ele>
        <time>2014-02-16T15:48:40Z</time>
      </trkpt>
      <trkpt lat="48.14517" lon="6.86906">
        <ele>683.51</ele>
        <time>2014-02-16T15:49:00Z</time>
      </trkpt>
      <trkpt lat="48.14535" lon="6.86904">
        <ele>682.2</ele>
        <time>2014-02-16T15:49:15Z</time>
      </trkpt>
      <trkpt lat="48.14542" lon="6.86903">
        <ele>681.84</ele>
        <time>2014-02-16T15:49:22Z</time>
      </trkpt>
      <trkpt lat="48.1455" lon="6.86903">
        <ele>681.39</ele>
        <time>2014-02-16T15:49:38Z</time>
      </trkpt>
      <trkpt lat="48.14558" lon="6.86903">
        <ele>680.73</ele>
        <time>2014-02-16T15:49:58Z</time>
      </trkpt>
      <trkpt lat="48.14564" lon="6.869">
        <ele>680.65</ele>
        <time>2014-02-16T15:50:03Z</time>
      </trkpt>
      <trkpt lat="48.14586" lon="6.86888">
        <ele>679.7</ele>
        <time>2014-02-16T15:50:22Z</time>
      </trkpt>
      <trkpt lat="48.14604" lon="6.86875">
        <ele>679.22</ele>
        <time>2014-02-16T15:50:40Z</time>
      </trkpt>
      <trkpt lat="48.14623" lon="6.86868">
        <ele>678.22</ele>
        <time>2014-02-16T15:50:57Z</time>
      </trkpt>
      <trkpt lat="48.14641" lon="6.86868">
        <ele>676.82</ele>
        <time>2014-02-16T15:51:13Z</time>
      </trkpt>
      <trkpt lat="48.14643" lon="6.86869">
        <ele>676.1</ele>
        <time>2014-02-16T15:51:34Z</time>
      </trkpt>
      <trkpt lat="48.14651" lon="6.86867">
        <ele>675.53</ele>
        <time>2014-02-16T15:51:57Z</time>
      </trkpt>
      <trkpt lat="48.14654" lon="6.86866">
        <ele>675.44</ele>
        <time>2014-02-16T15:51:59Z</time>
      </trkpt>
      <trkpt lat="48.14657" lon="6.86864">
        <ele>675.17</ele>
        <time>2014-02-16T15:52:02Z</time>
      </trkpt>
      <trkpt lat="48.14677" lon="6.86857">
        <ele>673.39</ele>
        <time>2014-02-16T15:52:20Z</time>
      </trkpt>
      <trkpt lat="48.14688" lon="6.86854">
        <ele>671.64</ele>
        <time>2014-02-16T15:52:36Z</time>
      </trkpt>
      <trkpt lat="48.1469" lon="6.86853">
        <ele>671.5</ele>
        <time>2014-02-16T15:52:42Z</time>
      </trkpt>
      <trkpt lat="48.14692" lon="6.86851">
        <ele>671.43</ele>
        <time>2014-02-16T15:52:44Z</time>
      </trkpt>
      <trkpt lat="48.14699" lon="6.86849">
        <ele>670.78</ele>
        <time>2014-02-16T15:52:50Z</time>
      </trkpt>
      <trkpt lat="48.14706" lon="6.86845">
        <ele>669.57</ele>
        <time>2014-02-16T15:52:57Z</time>
      </trkpt>
      <trkpt lat="48.14724" lon="6.86835">
        <ele>666.76</ele>
        <time>2014-02-16T15:53:14Z</time>
      </trkpt>
      <trkpt lat="48.14732" lon="6.86831">
        <ele>665.49</ele>
        <time>2014-02-16T15:53:22Z</time>
      </trkpt>
      <trkpt lat="48.14737" lon="6.86829">
        <ele>665</ele>
        <time>2014-02-16T15:53:26Z</time>
      </trkpt>
      <trkpt lat="48.14761" lon="6.86822">
        <ele>662.84</ele>
        <time>2014-02-16T15:53:45Z</time>
      </trkpt>
      <trkpt lat="48.1478" lon="6.86818">
        <ele>661.82</ele>
        <time>2014-02-16T15:53:59Z</time>
      </trkpt>
      <trkpt lat="48.14805" lon="6.86818">
        <ele>660.94</ele>
        <time>2014-02-16T15:54:18Z</time>
      </trkpt>
      <trkpt lat="48.14824" lon="6.86817">
        <ele>660.72</ele>
        <time>2014-02-16T15:54:34Z</time>
      </trkpt>
      <trkpt lat="48.14832" lon="6.86816">
        <ele>660.51</ele>
        <time>2014-02-16T15:54:41Z</time>
      </trkpt>
      <trkpt lat="48.14836" lon="6.86816">
        <ele>660.29</ele>
        <time>2014-02-16T15:54:44Z</time>
      </trkpt>
      <trkpt lat="48.1485" lon="6.86803">
        <ele>659</ele>
        <time>2014-02-16T15:54:59Z</time>
      </trkpt>
      <trkpt lat="48.14856" lon="6.868">
        <ele>658.3</ele>
        <time>2014-02-16T15:55:04Z</time>
      </trkpt>
      <trkpt lat="48.14863" lon="6.86794">
        <ele>657.29</ele>
        <time>2014-02-16T15:55:11Z</time>
      </trkpt>
      <trkpt lat="48.14874" lon="6.86786">
        <ele>656.46</ele>
        <time>2014-02-16T15:55:20Z</time>
      </trkpt>
      <trkpt lat="48.1489" lon="6.86766">
        <ele>655.27</ele>
        <time>2014-02-16T15:55:37Z</time>
      </trkpt>
      <trkpt lat="48.14896" lon="6.86752">
        <ele>653.58</ele>
        <time>2014-02-16T15:55:48Z</time>
      </trkpt>
      <trkpt lat="48.14905" lon="6.86733">
        <ele>651.21</ele>
        <time>2014-02-16T15:56:02Z</time>
      </trkpt>
      <trkpt lat="48.1491" lon="6.86728">
        <ele>649.73</ele>
        <time>2014-02-16T15:56:08Z</time>
      </trkpt>
      <trkpt lat="48.14924" lon="6.86714">
        <ele>646.87</ele>
        <time>2014-02-16T15:56:26Z</time>
      </trkpt>
      <trkpt lat="48.14929" lon="6.86714">
        <ele>646.29</ele>
        <time>2014-02-16T15:56:30Z</time>
      </trkpt>
      <trkpt lat="48.14949" lon="6.86716">
        <ele>643.57</ele>
        <time>2014-02-16T15:56:47Z</time>
      </trkpt>
      <trkpt lat="48.14969" lon="6.86715">
        <ele>641.9</ele>
        <time>2014-02-16T15:57:02Z</time>
      </trkpt>
      <trkpt lat="48.14988" lon="6.86708">
        <ele>640.58</ele>
        <time>2014-02-16T15:57:17Z</time>
      </trkpt>
      <trkpt lat="48.15007" lon="6.86704">
        <ele>639.23</ele>
        <time>2014-02-16T15:57:34Z</time>
      </trkpt>
      <trkpt lat="48.15027" lon="6.86702">
        <ele>637.77</ele>
        <time>2014-02-16T15:57:54Z</time>
      </trkpt>
      <trkpt lat="48.15032" lon="6.86702">
        <ele>637.28</ele>
        <time>2014-02-16T15:58:17Z</time>
      </trkpt>
      <trkpt lat="48.15035" lon="6.86703">
        <ele>637.31</ele>
        <time>2014-02-16T15:58:41Z</time>
      </trkpt>
      <trkpt lat="48.15041" lon="6.86711">
        <ele>637.36</ele>
        <time>2014-02-16T15:58:57Z</time>
      </trkpt>
      <trkpt lat="48.1506" lon="6.86708">
        <ele>636.49</ele>
        <time>2014-02-16T15:59:12Z</time>
      </trkpt>
      <trkpt lat="48.15081" lon="6.86704">
        <ele>635.08</ele>
        <time>2014-02-16T15:59:29Z</time>
      </trkpt>
      <trkpt lat="48.15109" lon="6.86701">
        <ele>632.18</ele>
        <time>2014-02-16T15:59:52Z</time>
      </trkpt>
      <trkpt lat="48.15127" lon="6.86694">
        <ele>630.59</ele>
        <time>2014-02-16T16:00:10Z</time>
      </trkpt>
      <trkpt lat="48.15149" lon="6.86679">
        <ele>629.49</ele>
        <time>2014-02-16T16:00:27Z</time>
      </trkpt>
      <trkpt lat="48.1515" lon="6.86678">
        <ele>629.44</ele>
        <time>2014-02-16T16:00:28Z</time>
      </trkpt>
      <trkpt lat="48.15169" lon="6.86658">
        <ele>627.95</ele>
        <time>2014-02-16T16:00:46Z</time>
      </trkpt>
      <trkpt lat="48.1517" lon="6.86656">
        <ele>627.77</ele>
        <time>2014-02-16T16:00:48Z</time>
      </trkpt>
      <trkpt lat="48.15185" lon="6.86635">
        <ele>626.67</ele>
        <time>2014-02-16T16:01:05Z</time>
      </trkpt>
      <trkpt lat="48.152" lon="6.86611">
        <ele>625.5</ele>
        <time>2014-02-16T16:01:22Z</time>
      </trkpt>
      <trkpt lat="48.15221" lon="6.86588">
        <ele>624.65</ele>
        <time>2014-02-16T16:01:43Z</time>
      </trkpt>
      <trkpt lat="48.15239" lon="6.86579">
        <ele>623.96</ele>
        <time>2014-02-16T16:01:59Z</time>
      </trkpt>
      <trkpt lat="48.15262" lon="6.86591">
        <ele>623.15</ele>
        <time>2014-02-16T16:02:18Z</time>
      </trkpt>
      <trkpt lat="48.15284" lon="6.86609">
        <ele>622.55</ele>
        <time>2014-02-16T16:02:39Z</time>
      </trkpt>
      <trkpt lat="48.153" lon="6.86625">
        <ele>622.4</ele>
        <time>2014-02-16T16:02:56Z</time>
      </trkpt>
      <trkpt lat="48.15306" lon="6.86631">
        <ele>622.34</ele>
        <time>2014-02-16T16:03:09Z</time>
      </trkpt>
      <trkpt lat="48.15308" lon="6.86634">
        <ele>622.43</ele>
        <time>2014-02-16T16:03:13Z</time>
      </trkpt>
      <trkpt lat="48.15319" lon="6.86651">
        <ele>622.34</ele>
        <time>2014-02-16T16:03:28Z</time>
      </trkpt>
      <trkpt lat="48.15326" lon="6.86663">
        <ele>622.1</ele>
        <time>2014-02-16T16:03:40Z</time>
      </trkpt>
      <trkpt lat="48.15311" lon="6.86666">
        <ele>622.13</ele>
        <time>2014-02-16T16:03:54Z</time>
      </trkpt>
      <trkpt lat="48.1531" lon="6.86666">
        <ele>622.17</ele>
        <time>2014-02-16T16:03:55Z</time>
      </trkpt>
      <trkpt lat="48.15294" lon="6.86681">
        <ele>622.57</ele>
        <time>2014-02-16T16:04:10Z</time>
      </trkpt>
      <trkpt lat="48.1528" lon="6.86698">
        <ele>622.89</ele>
        <time>2014-02-16T16:04:25Z</time>
      </trkpt>
      <trkpt lat="48.15264" lon="6.86719">
        <ele>622.83</ele>
        <time>2014-02-16T16:04:42Z</time>
      </trkpt>
      <trkpt lat="48.15248" lon="6.8674">
        <ele>622.57</ele>
        <time>2014-02-16T16:04:59Z</time>
      </trkpt>
      <trkpt lat="48.15233" lon="6.86763">
        <ele>622.03</ele>
        <time>2014-02-16T16:05:16Z</time>
      </trkpt>
      <trkpt lat="48.15229" lon="6.86787">
        <ele>622.14</ele>
        <time>2014-02-16T16:05:31Z</time>
      </trkpt>
      <trkpt lat="48.15226" lon="6.86817">
        <ele>621.81</ele>
        <time>2014-02-16T16:05:47Z</time>
      </trkpt>
      <trkpt lat="48.15223" lon="6.86847">
        <ele>620.99</ele>
        <time>2014-02-16T16:06:04Z</time>
      </trkpt>
      <trkpt lat="48.15218" lon="6.86881">
        <ele>620.57</ele>
        <time>2014-02-16T16:06:23Z</time>
      </trkpt>
      <trkpt lat="48.15213" lon="6.86912">
        <ele>619.9</ele>
        <time>2014-02-16T16:06:42Z</time>
      </trkpt>
      <trkpt lat="48.15208" lon="6.8693">
        <ele>619.42</ele>
        <time>2014-02-16T16:06:52Z</time>
      </trkpt>
      <trkpt lat="48.15201" lon="6.86959">
        <ele>618.79</ele>
        <time>2014-02-16T16:07:08Z</time>
      </trkpt>
      <trkpt lat="48.15199" lon="6.86965">
        <ele>618.69</ele>
        <time>2014-02-16T16:07:12Z</time>
      </trkpt>
      <trkpt lat="48.15197" lon="6.86973">
        <ele>618.35</ele>
        <time>2014-02-16T16:07:17Z</time>
      </trkpt>
      <trkpt lat="48.15192" lon="6.86989">
        <ele>618.26</ele>
        <time>2014-02-16T16:07:27Z</time>
      </trkpt>
      <trkpt lat="48.15186" lon="6.87014">
        <ele>617.33</ele>
        <time>2014-02-16T16:07:42Z</time>
      </trkpt>
      <trkpt lat="48.15182" lon="6.87037">
        <ele>617.36</ele>
        <time>2014-02-16T16:08:01Z</time>
      </trkpt>
      <trkpt lat="48.15175" lon="6.87053">
        <ele>617.17</ele>
        <time>2014-02-16T16:08:30Z</time>
      </trkpt>
      <trkpt lat="48.15173" lon="6.87068">
        <ele>617.01</ele>
        <time>2014-02-16T16:08:42Z</time>
      </trkpt>
      <trkpt lat="48.15166" lon="6.87086">
        <ele>616.61</ele>
        <time>2014-02-16T16:09:05Z</time>
      </trkpt>
      <trkpt lat="48.15164" lon="6.87092">
        <ele>616.64</ele>
        <time>2014-02-16T16:09:08Z</time>
      </trkpt>
      <trkpt lat="48.15162" lon="6.87129">
        <ele>616.89</ele>
        <time>2014-02-16T16:09:28Z</time>
      </trkpt>
      <trkpt lat="48.15164" lon="6.87141">
        <ele>617.17</ele>
        <time>2014-02-16T16:09:35Z</time>
      </trkpt>
      <trkpt lat="48.15164" lon="6.87165">
        <ele>617.17</ele>
        <time>2014-02-16T16:09:50Z</time>
      </trkpt>
      <trkpt lat="48.1515" lon="6.87192">
        <ele>618.27</ele>
        <time>2014-02-16T16:10:13Z</time>
      </trkpt>
      <trkpt lat="48.15137" lon="6.8722">
        <ele>619.8</ele>
        <time>2014-02-16T16:10:33Z</time>
      </trkpt>
      <trkpt lat="48.15135" lon="6.87223">
        <ele>620</ele>
        <time>2014-02-16T16:10:37Z</time>
      </trkpt>
      <trkpt lat="48.15124" lon="6.87249">
        <ele>621.75</ele>
        <time>2014-02-16T16:10:59Z</time>
      </trkpt>
      <trkpt lat="48.15121" lon="6.87261">
        <ele>622.66</ele>
        <time>2014-02-16T16:11:07Z</time>
      </trkpt>
      <trkpt lat="48.15119" lon="6.87267">
        <ele>623.01</ele>
        <time>2014-02-16T16:11:12Z</time>
      </trkpt>
      <trkpt lat="48.15115" lon="6.87281">
        <ele>623.44</ele>
        <time>2014-02-16T16:11:43Z</time>
      </trkpt>
      <trkpt lat="48.15113" lon="6.87283">
        <ele>624.4</ele>
        <time>2014-02-16T16:12:10Z</time>
      </trkpt>
      <trkpt lat="48.15102" lon="6.87294">
        <ele>623.91</ele>
        <time>2014-02-16T16:12:35Z</time>
      </trkpt>
      <trkpt lat="48.15105" lon="6.87298">
        <ele>624.46</ele>
        <time>2014-02-16T16:12:56Z</time>
      </trkpt>
      <trkpt lat="48.15115" lon="6.87301">
        <ele>625.14</ele>
        <time>2014-02-16T16:13:25Z</time>
      </trkpt>
      <trkpt lat="48.1511" lon="6.87296">
        <ele>625.66</ele>
        <time>2014-02-16T16:13:52Z</time>
      </trkpt>
      <trkpt lat="48.1511" lon="6.87296">
        <ele>625.07</ele>
        <time>2014-02-16T16:14:22Z</time>
      </trkpt>
      <trkpt lat="48.15106" lon="6.87301">
        <ele>625.52</ele>
        <time>2014-02-16T16:14:43Z</time>
      </trkpt>
      <trkpt lat="48.15109" lon="6.87296">
        <ele>625.43</ele>
        <time>2014-02-16T16:15:08Z</time>
      </trkpt>
      <trkpt lat="48.15107" lon="6.87297">
        <ele>625.41</ele>
        <time>2014-02-16T16:15:26Z</time>
      </trkpt>
      <trkpt lat="48.1511" lon="6.87291">
        <ele>625.08</ele>
        <time>2014-02-16T16:15:45Z</time>
      </trkpt>
      <trkpt lat="48.1511" lon="6.87295">
        <ele>625.3</ele>
        <time>2014-02-16T16:15:55Z</time>
      </trkpt>
      <trkpt lat="48.15105" lon="6.87304">
        <ele>625.32</ele>
        <time>2014-02-16T16:16:04Z</time>
      </trkpt>
      <trkpt lat="48.15107" lon="6.87308">
        <ele>626.06</ele>
        <time>2014-02-16T16:16:28Z</time>
      </trkpt>
      <trkpt lat="48.15099" lon="6.87327">
        <ele>628.41</ele>
        <time>2014-02-16T16:16:49Z</time>
      </trkpt>
      <trkpt lat="48.15093" lon="6.87339">
        <ele>629.13</ele>
        <time>2014-02-16T16:17:00Z</time>
      </trkpt>
      <trkpt lat="48.1509" lon="6.87343">
        <ele>629.76</ele>
        <time>2014-02-16T16:17:27Z</time>
      </trkpt>
      <trkpt lat="48.15081" lon="6.87364">
        <ele>630.57</ele>
        <time>2014-02-16T16:17:44Z</time>
      </trkpt>
      <trkpt lat="48.1508" lon="6.87367">
        <ele>631.03</ele>
        <time>2014-02-16T16:18:03Z</time>
      </trkpt>
      <trkpt lat="48.1508" lon="6.87369">
        <ele>630.98</ele>
        <time>2014-02-16T16:18:23Z</time>
      </trkpt>
      <trkpt lat="48.15077" lon="6.87375">
        <ele>631.23</ele>
        <time>2014-02-16T16:18:36Z</time>
      </trkpt>
      <trkpt lat="48.15074" lon="6.87384">
        <ele>631.35</ele>
        <time>2014-02-16T16:18:58Z</time>
      </trkpt>
      <trkpt lat="48.15072" lon="6.87398">
        <ele>631.87</ele>
        <time>2014-02-16T16:19:09Z</time>
      </trkpt>
      <trkpt lat="48.15067" lon="6.87411">
        <ele>632.4</ele>
        <time>2014-02-16T16:19:33Z</time>
      </trkpt>
      <trkpt lat="48.15066" lon="6.87413">
        <ele>632.42</ele>
        <time>2014-02-16T16:19:39Z</time>
      </trkpt>
      <trkpt lat="48.15067" lon="6.87435">
        <ele>634.14</ele>
        <time>2014-02-16T16:20:00Z</time>
      </trkpt>
      <trkpt lat="48.15066" lon="6.87462">
        <ele>636.17</ele>
        <time>2014-02-16T16:20:20Z</time>
      </trkpt>
      <trkpt lat="48.15063" lon="6.87493">
        <ele>637.77</ele>
        <time>2014-02-16T16:20:41Z</time>
      </trkpt>
      <trkpt lat="48.15056" lon="6.87515">
        <ele>638.46</ele>
        <time>2014-02-16T16:20:59Z</time>
      </trkpt>
      <trkpt lat="48.15047" lon="6.87542">
        <ele>638.95</ele>
        <time>2014-02-16T16:21:20Z</time>
      </trkpt>
      <trkpt lat="48.15035" lon="6.87569">
        <ele>640.25</ele>
        <time>2014-02-16T16:21:42Z</time>
      </trkpt>
      <trkpt lat="48.1503" lon="6.8758">
        <ele>640.49</ele>
        <time>2014-02-16T16:22:01Z</time>
      </trkpt>
      <trkpt lat="48.15023" lon="6.87592">
        <ele>640.71</ele>
        <time>2014-02-16T16:22:10Z</time>
      </trkpt>
      <trkpt lat="48.15021" lon="6.87597">
        <ele>641.36</ele>
        <time>2014-02-16T16:22:37Z</time>
      </trkpt>
      <trkpt lat="48.15019" lon="6.87597">
        <ele>640.99</ele>
        <time>2014-02-16T16:23:05Z</time>
      </trkpt>
      <trkpt lat="48.15022" lon="6.87593">
        <ele>641.2</ele>
        <time>2014-02-16T16:23:30Z</time>
      </trkpt>
      <trkpt lat="48.15021" lon="6.87601">
        <ele>641.08</ele>
        <time>2014-02-16T16:23:58Z</time>
      </trkpt>
      <trkpt lat="48.15017" lon="6.87609">
        <ele>641.02</ele>
        <time>2014-02-16T16:24:10Z</time>
      </trkpt>
      <trkpt lat="48.15015" lon="6.87622">
        <ele>642.72</ele>
        <time>2014-02-16T16:24:38Z</time>
      </trkpt>
      <trkpt lat="48.15012" lon="6.87634">
        <ele>643.81</ele>
        <time>2014-02-16T16:24:58Z</time>
      </trkpt>
      <trkpt lat="48.15011" lon="6.87639">
        <ele>644.08</ele>
        <time>2014-02-16T16:25:02Z</time>
      </trkpt>
      <trkpt lat="48.15003" lon="6.87657">
        <ele>645.09</ele>
        <time>2014-02-16T16:25:13Z</time>
      </trkpt>
      <trkpt lat="48.14974" lon="6.87715">
        <ele>646.53</ele>
        <time>2014-02-16T16:25:29Z</time>
      </trkpt>
      <trkpt lat="48.14967" lon="6.87736">
        <ele>647.05</ele>
        <time>2014-02-16T16:25:47Z</time>
      </trkpt>
      <trkpt lat="48.14948" lon="6.87785">
        <ele>647.38</ele>
        <time>2014-02-16T16:26:12Z</time>
      </trkpt>
      <trkpt lat="48.14943" lon="6.878">
        <ele>647.2</ele>
        <time>2014-02-16T16:26:21Z</time>
      </trkpt>
      <trkpt lat="48.14931" lon="6.8782">
        <ele>646.83</ele>
        <time>2014-02-16T16:26:41Z</time>
      </trkpt>
      <trkpt lat="48.14917" lon="6.87843">
        <ele>646.26</ele>
        <time>2014-02-16T16:27:03Z</time>
      </trkpt>
      <trkpt lat="48.14916" lon="6.87844">
        <ele>646.19</ele>
        <time>2014-02-16T16:27:04Z</time>
      </trkpt>
      <trkpt lat="48.14906" lon="6.87863">
        <ele>646.27</ele>
        <time>2014-02-16T16:27:28Z</time>
      </trkpt>
      <trkpt lat="48.14904" lon="6.87864">
        <ele>646.61</ele>
        <time>2014-02-16T16:28:02Z</time>
      </trkpt>
      <trkpt lat="48.14896" lon="6.87874">
        <ele>646.28</ele>
        <time>2014-02-16T16:28:23Z</time>
      </trkpt>
      <trkpt lat="48.14884" lon="6.8789">
        <ele>645.85</ele>
        <time>2014-02-16T16:28:46Z</time>
      </trkpt>
      <trkpt lat="48.1488" lon="6.87895">
        <ele>645.91</ele>
        <time>2014-02-16T16:29:07Z</time>
      </trkpt>
      <trkpt lat="48.14879" lon="6.87908">
        <ele>644.65</ele>
        <time>2014-02-16T16:29:26Z</time>
      </trkpt>
      <trkpt lat="48.14877" lon="6.87925">
        <ele>644.69</ele>
        <time>2014-02-16T16:29:39Z</time>
      </trkpt>
      <trkpt lat="48.14865" lon="6.87966">
        <ele>645.12</ele>
        <time>2014-02-16T16:30:00Z</time>
      </trkpt>
      <trkpt lat="48.14828" lon="6.88055">
        <ele>646.63</ele>
        <time>2014-02-16T16:30:22Z</time>
      </trkpt>
      <trkpt lat="48.14829" lon="6.88059">
        <ele>647.19</ele>
        <time>2014-02-16T16:30:29Z</time>
      </trkpt>
      <trkpt lat="48.14836" lon="6.88061">
        <ele>648.1</ele>
        <time>2014-02-16T16:30:49Z</time>
      </trkpt>
      <trkpt lat="48.14841" lon="6.88074">
        <ele>650.46</ele>
        <time>2014-02-16T16:31:12Z</time>
      </trkpt>
      <trkpt lat="48.14842" lon="6.88077">
        <ele>651.02</ele>
        <time>2014-02-16T16:31:16Z</time>
      </trkpt>
      <trkpt lat="48.14848" lon="6.8809">
        <ele>652.24</ele>
        <time>2014-02-16T16:31:33Z</time>
      </trkpt>
      <trkpt lat="48.1485" lon="6.88095">
        <ele>652.46</ele>
        <time>2014-02-16T16:31:38Z</time>
      </trkpt>
      <trkpt lat="48.14849" lon="6.88098">
        <ele>652.42</ele>
        <time>2014-02-16T16:31:40Z</time>
      </trkpt>
      <trkpt lat="48.14856" lon="6.88114">
        <ele>653.9</ele>
        <time>2014-02-16T16:32:03Z</time>
      </trkpt>
      <trkpt lat="48.14855" lon="6.88115">
        <ele>654.07</ele>
        <time>2014-02-16T16:32:05Z</time>
      </trkpt>
      <trkpt lat="48.14857" lon="6.88129">
        <ele>654.95</ele>
        <time>2014-02-16T16:32:25Z</time>
      </trkpt>
      <trkpt lat="48.14865" lon="6.88146">
        <ele>656.9</ele>
        <time>2014-02-16T16:32:45Z</time>
      </trkpt>
      <trkpt lat="48.14863" lon="6.88154">
        <ele>657.32</ele>
        <time>2014-02-16T16:32:50Z</time>
      </trkpt>
      <trkpt lat="48.1476" lon="6.88342">
        <ele>657.87</ele>
        <time>2014-02-16T16:33:16Z</time>
      </trkpt>
      <trkpt lat="48.1475" lon="6.88361">
        <ele>658.08</ele>
        <time>2014-02-16T16:33:23Z</time>
      </trkpt>
      <trkpt lat="48.1474" lon="6.88389">
        <ele>659.17</ele>
        <time>2014-02-16T16:33:50Z</time>
      </trkpt>
      <trkpt lat="48.14741" lon="6.884">
        <ele>660.65</ele>
        <time>2014-02-16T16:34:16Z</time>
      </trkpt>
      <trkpt lat="48.14738" lon="6.88416">
        <ele>661.19</ele>
        <time>2014-02-16T16:34:39Z</time>
      </trkpt>
      <trkpt lat="48.1472" lon="6.88448">
        <ele>661.26</ele>
        <time>2014-02-16T16:34:43Z</time>
      </trkpt>
      <trkpt lat="48.14682" lon="6.88523">
        <ele>662.06</ele>
        <time>2014-02-16T16:35:06Z</time>
      </trkpt>
      <trkpt lat="48.14661" lon="6.88565">
        <ele>662.51</ele>
        <time>2014-02-16T16:35:27Z</time>
      </trkpt>
      <trkpt lat="48.14644" lon="6.88609">
        <ele>663.17</ele>
        <time>2014-02-16T16:35:49Z</time>
      </trkpt>
      <trkpt lat="48.14631" lon="6.8864">
        <ele>663.53</ele>
        <time>2014-02-16T16:36:07Z</time>
      </trkpt>
      <trkpt lat="48.14617" lon="6.88673">
        <ele>664.05</ele>
        <time>2014-02-16T16:36:26Z</time>
      </trkpt>
      <trkpt lat="48.14604" lon="6.88702">
        <ele>664.66</ele>
        <time>2014-02-16T16:36:44Z</time>
      </trkpt>
      <trkpt lat="48.14592" lon="6.8873">
        <ele>664.88</ele>
        <time>2014-02-16T16:37:02Z</time>
      </trkpt>
      <trkpt lat="48.14577" lon="6.88764">
        <ele>665.32</ele>
        <time>2014-02-16T16:37:23Z</time>
      </trkpt>
      <trkpt lat="48.14574" lon="6.88772">
        <ele>665.41</ele>
        <time>2014-02-16T16:37:30Z</time>
      </trkpt>
      <trkpt lat="48.14558" lon="6.88803">
        <ele>665.3</ele>
        <time>2014-02-16T16:37:53Z</time>
      </trkpt>
      <trkpt lat="48.14548" lon="6.88824">
        <ele>665.48</ele>
        <time>2014-02-16T16:38:09Z</time>
      </trkpt>
      <trkpt lat="48.14535" lon="6.88852">
        <ele>665.59</ele>
        <time>2014-02-16T16:38:28Z</time>
      </trkpt>
      <trkpt lat="48.14522" lon="6.88882">
        <ele>665.59</ele>
        <time>2014-02-16T16:38:49Z</time>
      </trkpt>
      <trkpt lat="48.14505" lon="6.88915">
        <ele>665.49</ele>
        <time>2014-02-16T16:39:10Z</time>
      </trkpt>
      <trkpt lat="48.14492" lon="6.88938">
        <ele>665.85</ele>
        <time>2014-02-16T16:39:27Z</time>
      </trkpt>
      <trkpt lat="48.14489" lon="6.88943">
        <ele>666.09</ele>
        <time>2014-02-16T16:39:31Z</time>
      </trkpt>
      <trkpt lat="48.14479" lon="6.88959">
        <ele>666.01</ele>
        <time>2014-02-16T16:39:47Z</time>
      </trkpt>
      <trkpt lat="48.14463" lon="6.88987">
        <ele>666.83</ele>
        <time>2014-02-16T16:40:11Z</time>
      </trkpt>
      <trkpt lat="48.14459" lon="6.88998">
        <ele>666.91</ele>
        <time>2014-02-16T16:40:16Z</time>
      </trkpt>
      <trkpt lat="48.14447" lon="6.89028">
        <ele>667.99</ele>
        <time>2014-02-16T16:40:35Z</time>
      </trkpt>
      <trkpt lat="48.14436" lon="6.8906">
        <ele>669.28</ele>
        <time>2014-02-16T16:40:53Z</time>
      </trkpt>
      <trkpt lat="48.14431" lon="6.89081">
        <ele>670.04</ele>
        <time>2014-02-16T16:41:10Z</time>
      </trkpt>
      <trkpt lat="48.14433" lon="6.89103">
        <ele>671.47</ele>
        <time>2014-02-16T16:41:32Z</time>
      </trkpt>
      <trkpt lat="48.14432" lon="6.89105">
        <ele>671.77</ele>
        <time>2014-02-16T16:41:35Z</time>
      </trkpt>
      <trkpt lat="48.14407" lon="6.89139">
        <ele>674.17</ele>
        <time>2014-02-16T16:41:58Z</time>
      </trkpt>
      <trkpt lat="48.14386" lon="6.89155">
        <ele>676.26</ele>
        <time>2014-02-16T16:42:14Z</time>
      </trkpt>
      <trkpt lat="48.14371" lon="6.89163">
        <ele>678.34</ele>
        <time>2014-02-16T16:42:34Z</time>
      </trkpt>
      <trkpt lat="48.14354" lon="6.89179">
        <ele>680.98</ele>
        <time>2014-02-16T16:42:59Z</time>
      </trkpt>
      <trkpt lat="48.14332" lon="6.89198">
        <ele>683.13</ele>
        <time>2014-02-16T16:43:19Z</time>
      </trkpt>
      <trkpt lat="48.1432" lon="6.89209">
        <ele>684.55</ele>
        <time>2014-02-16T16:43:36Z</time>
      </trkpt>
      <trkpt lat="48.14299" lon="6.89235">
        <ele>685.67</ele>
        <time>2014-02-16T16:44:00Z</time>
      </trkpt>
      <trkpt lat="48.14278" lon="6.89254">
        <ele>686.77</ele>
        <time>2014-02-16T16:44:25Z</time>
      </trkpt>
      <trkpt lat="48.14263" lon="6.89271">
        <ele>687.37</ele>
        <time>2014-02-16T16:44:45Z</time>
      </trkpt>
      <trkpt lat="48.14242" lon="6.89305">
        <ele>686.87</ele>
        <time>2014-02-16T16:45:03Z</time>
      </trkpt>
      <trkpt lat="48.14229" lon="6.89329">
        <ele>686.5</ele>
        <time>2014-02-16T16:45:19Z</time>
      </trkpt>
      <trkpt lat="48.14218" lon="6.8935">
        <ele>686.4</ele>
        <time>2014-02-16T16:45:38Z</time>
      </trkpt>
      <trkpt lat="48.14203" lon="6.89379">
        <ele>686.86</ele>
        <time>2014-02-16T16:45:57Z</time>
      </trkpt>
      <trkpt lat="48.14198" lon="6.89386">
        <ele>687.04</ele>
        <time>2014-02-16T16:46:03Z</time>
      </trkpt>
      <trkpt lat="48.14189" lon="6.89405">
        <ele>687.03</ele>
        <time>2014-02-16T16:46:15Z</time>
      </trkpt>
      <trkpt lat="48.14176" lon="6.8944">
        <ele>687.59</ele>
        <time>2014-02-16T16:46:33Z</time>
      </trkpt>
      <trkpt lat="48.14163" lon="6.89473">
        <ele>688.39</ele>
        <time>2014-02-16T16:46:53Z</time>
      </trkpt>
      <trkpt lat="48.1415" lon="6.89498">
        <ele>689.54</ele>
        <time>2014-02-16T16:47:10Z</time>
      </trkpt>
      <trkpt lat="48.14136" lon="6.89514">
        <ele>691.2</ele>
        <time>2014-02-16T16:47:26Z</time>
      </trkpt>
      <trkpt lat="48.14122" lon="6.89525">
        <ele>692.99</ele>
        <time>2014-02-16T16:47:45Z</time>
      </trkpt>
      <trkpt lat="48.14115" lon="6.89534">
        <ele>693.21</ele>
        <time>2014-02-16T16:47:52Z</time>
      </trkpt>
      <trkpt lat="48.141" lon="6.89553">
        <ele>692.78</ele>
        <time>2014-02-16T16:48:09Z</time>
      </trkpt>
      <trkpt lat="48.14099" lon="6.89554">
        <ele>692.76</ele>
        <time>2014-02-16T16:48:10Z</time>
      </trkpt>
      <trkpt lat="48.14088" lon="6.89584">
        <ele>693.39</ele>
        <time>2014-02-16T16:48:30Z</time>
      </trkpt>
      <trkpt lat="48.14083" lon="6.89612">
        <ele>692.85</ele>
        <time>2014-02-16T16:48:49Z</time>
      </trkpt>
      <trkpt lat="48.14077" lon="6.89641">
        <ele>692.95</ele>
        <time>2014-02-16T16:49:07Z</time>
      </trkpt>
      <trkpt lat="48.14071" lon="6.89653">
        <ele>692.8</ele>
        <time>2014-02-16T16:49:18Z</time>
      </trkpt>
      <trkpt lat="48.14056" lon="6.89657">
        <ele>692.03</ele>
        <time>2014-02-16T16:49:36Z</time>
      </trkpt>
      <trkpt lat="48.14051" lon="6.89656">
        <ele>691.36</ele>
        <time>2014-02-16T16:49:43Z</time>
      </trkpt>
      <trkpt lat="48.14031" lon="6.89641">
        <ele>688.25</ele>
        <time>2014-02-16T16:50:08Z</time>
      </trkpt>
      <trkpt lat="48.1403" lon="6.8964">
        <ele>687.97</ele>
        <time>2014-02-16T16:50:10Z</time>
      </trkpt>
      <trkpt lat="48.14002" lon="6.89618">
        <ele>684.76</ele>
        <time>2014-02-16T16:50:33Z</time>
      </trkpt>
      <trkpt lat="48.1398" lon="6.89617">
        <ele>682.54</ele>
        <time>2014-02-16T16:50:55Z</time>
      </trkpt>
      <trkpt lat="48.13968" lon="6.89636">
        <ele>682.76</ele>
        <time>2014-02-16T16:51:10Z</time>
      </trkpt>
      <trkpt lat="48.13956" lon="6.89644">
        <ele>684.25</ele>
        <time>2014-02-16T16:51:24Z</time>
      </trkpt>
      <trkpt lat="48.13951" lon="6.89648">
        <ele>684.98</ele>
        <time>2014-02-16T16:51:28Z</time>
      </trkpt>
      <trkpt lat="48.13931" lon="6.89656">
        <ele>687.27</ele>
        <time>2014-02-16T16:51:48Z</time>
      </trkpt>
      <trkpt lat="48.13916" lon="6.89668">
        <ele>688.94</ele>
        <time>2014-02-16T16:52:06Z</time>
      </trkpt>
      <trkpt lat="48.13901" lon="6.89685">
        <ele>690.61</ele>
        <time>2014-02-16T16:52:21Z</time>
      </trkpt>
      <trkpt lat="48.13888" lon="6.89697">
        <ele>692.39</ele>
        <time>2014-02-16T16:52:34Z</time>
      </trkpt>
      <trkpt lat="48.13883" lon="6.89701">
        <ele>693.03</ele>
        <time>2014-02-16T16:52:39Z</time>
      </trkpt>
      <trkpt lat="48.13866" lon="6.89713">
        <ele>695.21</ele>
        <time>2014-02-16T16:52:56Z</time>
      </trkpt>
      <trkpt lat="48.13849" lon="6.89725">
        <ele>697.13</ele>
        <time>2014-02-16T16:53:13Z</time>
      </trkpt>
      <trkpt lat="48.13832" lon="6.89737">
        <ele>698.55</ele>
        <time>2014-02-16T16:53:29Z</time>
      </trkpt>
      <trkpt lat="48.13814" lon="6.89754">
        <ele>700.15</ele>
        <time>2014-02-16T16:53:47Z</time>
      </trkpt>
      <trkpt lat="48.13795" lon="6.89775">
        <ele>701.31</ele>
        <time>2014-02-16T16:54:07Z</time>
      </trkpt>
      <trkpt lat="48.13776" lon="6.89799">
        <ele>703.16</ele>
        <time>2014-02-16T16:54:29Z</time>
      </trkpt>
      <trkpt lat="48.13759" lon="6.8982">
        <ele>703.9</ele>
        <time>2014-02-16T16:54:48Z</time>
      </trkpt>
      <trkpt lat="48.13754" lon="6.89827">
        <ele>704.1</ele>
        <time>2014-02-16T16:54:54Z</time>
      </trkpt>
      <trkpt lat="48.1375" lon="6.89832">
        <ele>704.25</ele>
        <time>2014-02-16T16:54:58Z</time>
      </trkpt>
      <trkpt lat="48.13735" lon="6.89849">
        <ele>705.08</ele>
        <time>2014-02-16T16:55:14Z</time>
      </trkpt>
      <trkpt lat="48.13715" lon="6.89869">
        <ele>705.43</ele>
        <time>2014-02-16T16:55:34Z</time>
      </trkpt>
      <trkpt lat="48.13696" lon="6.89891">
        <ele>705.7</ele>
        <time>2014-02-16T16:55:54Z</time>
      </trkpt>
      <trkpt lat="48.1368" lon="6.89908">
        <ele>706.12</ele>
        <time>2014-02-16T16:56:11Z</time>
      </trkpt>
      <trkpt lat="48.13667" lon="6.89926">
        <ele>706.69</ele>
        <time>2014-02-16T16:56:26Z</time>
      </trkpt>
      <trkpt lat="48.13653" lon="6.89942">
        <ele>707.13</ele>
        <time>2014-02-16T16:56:43Z</time>
      </trkpt>
      <trkpt lat="48.13647" lon="6.89947">
        <ele>707.03</ele>
        <time>2014-02-16T16:57:02Z</time>
      </trkpt>
      <trkpt lat="48.13629" lon="6.89964">
        <ele>707.46</ele>
        <time>2014-02-16T16:57:22Z</time>
      </trkpt>
      <trkpt lat="48.13613" lon="6.89978">
        <ele>707.47</ele>
        <time>2014-02-16T16:57:44Z</time>
      </trkpt>
      <trkpt lat="48.13587" lon="6.9">
        <ele>707.92</ele>
        <time>2014-02-16T16:58:09Z</time>
      </trkpt>
      <trkpt lat="48.13562" lon="6.90025">
        <ele>707.91</ele>
        <time>2014-02-16T16:58:29Z</time>
      </trkpt>
      <trkpt lat="48.1355" lon="6.90036">
        <ele>707.9</ele>
        <time>2014-02-16T16:58:40Z</time>
      </trkpt>
      <trkpt lat="48.13539" lon="6.90047">
        <ele>708.02</ele>
        <time>2014-02-16T16:58:55Z</time>
      </trkpt>
      <trkpt lat="48.13537" lon="6.90049">
        <ele>708.11</ele>
        <time>2014-02-16T16:58:58Z</time>
      </trkpt>
      <trkpt lat="48.13535" lon="6.90052">
        <ele>708.24</ele>
        <time>2014-02-16T16:59:01Z</time>
      </trkpt>
      <trkpt lat="48.13517" lon="6.90069">
        <ele>708.11</ele>
        <time>2014-02-16T16:59:22Z</time>
      </trkpt>
      <trkpt lat="48.13502" lon="6.90084">
        <ele>708.48</ele>
        <time>2014-02-16T16:59:39Z</time>
      </trkpt>
      <trkpt lat="48.13487" lon="6.90094">
        <ele>708.37</ele>
        <time>2014-02-16T16:59:55Z</time>
      </trkpt>
      <trkpt lat="48.13465" lon="6.90112">
        <ele>707.92</ele>
        <time>2014-02-16T17:00:14Z</time>
      </trkpt>
      <trkpt lat="48.13459" lon="6.90118">
        <ele>708.02</ele>
        <time>2014-02-16T17:00:20Z</time>
      </trkpt>
      <trkpt lat="48.13438" lon="6.90131">
        <ele>707.56</ele>
        <time>2014-02-16T17:00:37Z</time>
      </trkpt>
      <trkpt lat="48.13437" lon="6.90133">
        <ele>707.55</ele>
        <time>2014-02-16T17:00:38Z</time>
      </trkpt>
      <trkpt lat="48.13431" lon="6.90156">
        <ele>707.84</ele>
        <time>2014-02-16T17:00:51Z</time>
      </trkpt>
      <trkpt lat="48.13428" lon="6.9018">
        <ele>709.07</ele>
        <time>2014-02-16T17:01:04Z</time>
      </trkpt>
      <trkpt lat="48.13428" lon="6.90193">
        <ele>709.74</ele>
        <time>2014-02-16T17:01:13Z</time>
      </trkpt>
      <trkpt lat="48.1343" lon="6.90211">
        <ele>709.99</ele>
        <time>2014-02-16T17:01:25Z</time>
      </trkpt>
      <trkpt lat="48.1343" lon="6.90219">
        <ele>710.29</ele>
        <time>2014-02-16T17:01:30Z</time>
      </trkpt>
      <trkpt lat="48.13431" lon="6.90221">
        <ele>710.52</ele>
        <time>2014-02-16T17:01:32Z</time>
      </trkpt>
      <trkpt lat="48.13433" lon="6.90245">
        <ele>711.1</ele>
        <time>2014-02-16T17:01:45Z</time>
      </trkpt>
      <trkpt lat="48.13432" lon="6.90259">
        <ele>711.73</ele>
        <time>2014-02-16T17:01:54Z</time>
      </trkpt>
      <trkpt lat="48.13429" lon="6.90273">
        <ele>712.46</ele>
        <time>2014-02-16T17:02:04Z</time>
      </trkpt>
      <trkpt lat="48.13428" lon="6.90287">
        <ele>712.82</ele>
        <time>2014-02-16T17:02:13Z</time>
      </trkpt>
      <trkpt lat="48.13427" lon="6.90296">
        <ele>713.53</ele>
        <time>2014-02-16T17:02:19Z</time>
      </trkpt>
      <trkpt lat="48.13422" lon="6.90309">
        <ele>714.85</ele>
        <time>2014-02-16T17:02:35Z</time>
      </trkpt>
      <trkpt lat="48.1342" lon="6.90307">
        <ele>715.33</ele>
        <time>2014-02-16T17:02:42Z</time>
      </trkpt>
      <trkpt lat="48.13411" lon="6.90295">
        <ele>715.82</ele>
        <time>2014-02-16T17:03:08Z</time>
      </trkpt>
      <trkpt lat="48.13393" lon="6.90299">
        <ele>717.99</ele>
        <time>2014-02-16T17:03:29Z</time>
      </trkpt>
      <trkpt lat="48.13371" lon="6.90313">
        <ele>719.36</ele>
        <time>2014-02-16T17:03:49Z</time>
      </trkpt>
      <trkpt lat="48.13352" lon="6.90322">
        <ele>721.69</ele>
        <time>2014-02-16T17:04:10Z</time>
      </trkpt>
      <trkpt lat="48.13334" lon="6.90337">
        <ele>723.35</ele>
        <time>2014-02-16T17:04:31Z</time>
      </trkpt>
      <trkpt lat="48.13318" lon="6.90347">
        <ele>723.98</ele>
        <time>2014-02-16T17:04:46Z</time>
      </trkpt>
      <trkpt lat="48.13296" lon="6.90363">
        <ele>725.16</ele>
        <time>2014-02-16T17:05:07Z</time>
      </trkpt>
      <trkpt lat="48.13277" lon="6.90377">
        <ele>726.3</ele>
        <time>2014-02-16T17:05:29Z</time>
      </trkpt>
      <trkpt lat="48.13259" lon="6.9039">
        <ele>727.67</ele>
        <time>2014-02-16T17:05:48Z</time>
      </trkpt>
      <trkpt lat="48.13242" lon="6.90402">
        <ele>729.34</ele>
        <time>2014-02-16T17:06:08Z</time>
      </trkpt>
      <trkpt lat="48.13228" lon="6.90422">
        <ele>729.71</ele>
        <time>2014-02-16T17:06:28Z</time>
      </trkpt>
      <trkpt lat="48.13211" lon="6.90437">
        <ele>730.25</ele>
        <time>2014-02-16T17:06:47Z</time>
      </trkpt>
      <trkpt lat="48.13196" lon="6.90451">
        <ele>730.21</ele>
        <time>2014-02-16T17:07:03Z</time>
      </trkpt>
      <trkpt lat="48.1319" lon="6.90456">
        <ele>730.16</ele>
        <time>2014-02-16T17:07:08Z</time>
      </trkpt>
      <trkpt lat="48.13183" lon="6.9046">
        <ele>730.15</ele>
        <time>2014-02-16T17:07:15Z</time>
      </trkpt>
      <trkpt lat="48.13171" lon="6.90468">
        <ele>730</ele>
        <time>2014-02-16T17:07:28Z</time>
      </trkpt>
      <trkpt lat="48.1317" lon="6.90469">
        <ele>729.93</ele>
        <time>2014-02-16T17:07:29Z</time>
      </trkpt>
      <trkpt lat="48.1315" lon="6.90482">
        <ele>729.73</ele>
        <time>2014-02-16T17:07:47Z</time>
      </trkpt>
      <trkpt lat="48.13131" lon="6.90493">
        <ele>729.52</ele>
        <time>2014-02-16T17:08:05Z</time>
      </trkpt>
      <trkpt lat="48.13117" lon="6.90504">
        <ele>729.23</ele>
        <time>2014-02-16T17:08:20Z</time>
      </trkpt>
      <trkpt lat="48.13102" lon="6.90516">
        <ele>729.06</ele>
        <time>2014-02-16T17:08:35Z</time>
      </trkpt>
      <trkpt lat="48.1309" lon="6.90526">
        <ele>728.68</ele>
        <time>2014-02-16T17:08:47Z</time>
      </trkpt>
      <trkpt lat="48.13076" lon="6.90541">
        <ele>728.47</ele>
        <time>2014-02-16T17:09:03Z</time>
      </trkpt>
      <trkpt lat="48.13057" lon="6.9056">
        <ele>727.83</ele>
        <time>2014-02-16T17:09:22Z</time>
      </trkpt>
      <trkpt lat="48.13041" lon="6.90577">
        <ele>727.09</ele>
        <time>2014-02-16T17:09:39Z</time>
      </trkpt>
      <trkpt lat="48.13023" lon="6.90592">
        <ele>726.17</ele>
        <time>2014-02-16T17:09:56Z</time>
      </trkpt>
      <trkpt lat="48.13003" lon="6.90612">
        <ele>725.24</ele>
        <time>2014-02-16T17:10:17Z</time>
      </trkpt>
      <trkpt lat="48.12989" lon="6.90631">
        <ele>724.68</ele>
        <time>2014-02-16T17:10:33Z</time>
      </trkpt>
      <trkpt lat="48.12975" lon="6.90652">
        <ele>724.28</ele>
        <time>2014-02-16T17:10:50Z</time>
      </trkpt>
      <trkpt lat="48.12965" lon="6.90668">
        <ele>724.22</ele>
        <time>2014-02-16T17:11:04Z</time>
      </trkpt>
      <trkpt lat="48.12951" lon="6.90687">
        <ele>723.31</ele>
        <time>2014-02-16T17:11:20Z</time>
      </trkpt>
      <trkpt lat="48.12935" lon="6.90701">
        <ele>722.85</ele>
        <time>2014-02-16T17:11:36Z</time>
      </trkpt>
      <trkpt lat="48.12921" lon="6.90714">
        <ele>722.15</ele>
        <time>2014-02-16T17:11:49Z</time>
      </trkpt>
      <trkpt lat="48.12917" lon="6.90718">
        <ele>722.13</ele>
        <time>2014-02-16T17:11:53Z</time>
      </trkpt>
      <trkpt lat="48.12901" lon="6.90734">
        <ele>722.18</ele>
        <time>2014-02-16T17:12:10Z</time>
      </trkpt>
      <trkpt lat="48.12891" lon="6.9074">
        <ele>721.89</ele>
        <time>2014-02-16T17:12:24Z</time>
      </trkpt>
      <trkpt lat="48.1288" lon="6.9075">
        <ele>722.16</ele>
        <time>2014-02-16T17:12:43Z</time>
      </trkpt>
      <trkpt lat="48.12861" lon="6.90765">
        <ele>722.93</ele>
        <time>2014-02-16T17:13:05Z</time>
      </trkpt>
      <trkpt lat="48.12842" lon="6.90774">
        <ele>722.69</ele>
        <time>2014-02-16T17:13:23Z</time>
      </trkpt>
      <trkpt lat="48.12828" lon="6.90781">
        <ele>722.56</ele>
        <time>2014-02-16T17:13:37Z</time>
      </trkpt>
      <trkpt lat="48.12823" lon="6.90781">
        <ele>722.44</ele>
        <time>2014-02-16T17:13:41Z</time>
      </trkpt>
      <trkpt lat="48.12808" lon="6.90787">
        <ele>722.14</ele>
        <time>2014-02-16T17:13:56Z</time>
      </trkpt>
      <trkpt lat="48.12796" lon="6.90794">
        <ele>721.82</ele>
        <time>2014-02-16T17:14:10Z</time>
      </trkpt>
      <trkpt lat="48.1279" lon="6.90797">
        <ele>721.76</ele>
        <time>2014-02-16T17:14:15Z</time>
      </trkpt>
    </trkseg>
  </trk>
</gpx>